Observation data for Estelline on 10/18/2019      Previous  Date       Current Mesonet Observations  Soil Data  Daily Summary Page  Observations in Plain Language
KES1 180500Z 16012KT 16/M00 A2982 RMK A01 T01621002  RH  033%=      5-min Rain = 0
KES1 180501Z 16012KT 16/M00 A2982 RMK A01 T01611002  RH  033%=      5-min Rain = 0
KES1 180502Z 16012KT 16/M00 A2982 RMK A01 T01611002  RH  033%=      5-min Rain = 0
KES1 180503Z 16014G20KT 16/M00 A2982 RMK A01 T01611002  RH  033%=      5-min Rain = 0
KES1 180504Z 16012KT 16/M00 A2982 RMK A01 T01611002  RH  033%=      5-min Rain = 0
KES1 180505Z 17011KT 16/M00 A2982 RMK A01 T01631001  RH  033%=      5-min Rain = 0
KES1 180506Z 17010KT 16/M00 A2982 RMK A01 T01621002  RH  033%=      5-min Rain = 0
KES1 180507Z 17012KT 16/M00 A2982 RMK A01 T01631002  RH  033%=      5-min Rain = 0
KES1 180508Z 18011G16KT 16/M00 A2982 RMK A01 T01631002  RH  032%=      5-min Rain = 0
KES1 180509Z 18011KT 16/M00 A2982 RMK A01 T01641001  RH  032%=      5-min Rain = 0
KES1 180510Z 18012KT 16/M00 A2982 RMK A01 T01641002  RH  032%=      5-min Rain = 0
KES1 180511Z 17013KT 16/M00 A2982 RMK A01 T01641002  RH  032%=      5-min Rain = 0
KES1 180512Z 17010G16KT 16/M00 A2982 RMK A01 T01641002  RH  032%=      5-min Rain = 0
KES1 180513Z 17011KT 16/M00 A2982 RMK A01 T01641001  RH  032%=      5-min Rain = 0
KES1 180514Z 17013KT 16/M00 A2982 RMK A01 T01641002  RH  032%=      5-min Rain = 0
KES1 180515Z 17012KT 16/M00 A2982 RMK A01 T01641002  RH  032%=      5-min Rain = 0
KES1 180516Z 17013KT 17/M00 A2982 RMK A01 T01651001  RH  032%=      5-min Rain = 0
KES1 180517Z 17012KT 16/M00 A2982 RMK A01 T01641002  RH  032%=      5-min Rain = 0
KES1 180518Z 17012G17KT 17/M00 A2982 RMK A01 T01651002  RH  032%=      5-min Rain = 0
KES1 180519Z 17011KT 17/M00 A2982 RMK A01 T01651001  RH  032%=      5-min Rain = 0
KES1 180520Z 17013G18KT 17/M00 A2982 RMK A01 T01651001  RH  032%=      5-min Rain = 0
KES1 180521Z 17014KT 17/M00 A2982 RMK A01 T01651001  RH  032%=      5-min Rain = 0
KES1 180522Z 16013KT 17/M00 A2982 RMK A01 T01651002  RH  032%=      5-min Rain = 0
KES1 180523Z 16014KT 17/M00 A2982 RMK A01 T01651002  RH  032%=      5-min Rain = 0
KES1 180524Z 17014KT 17/M00 A2982 RMK A01 T01651002  RH  032%=      5-min Rain = 0
KES1 180525Z 16014KT 17/M00 A2982 RMK A01 T01651001  RH  032%=      5-min Rain = 0
KES1 180526Z 16015KT 17/M00 A2982 RMK A01 T01651001  RH  032%=      5-min Rain = 0
KES1 180527Z 16014KT 16/M00 A2982 RMK A01 T01641001  RH  032%=      5-min Rain = 0
KES1 180528Z 16014KT 16/M00 A2981 RMK A01 T01641001  RH  032%=      5-min Rain = 0
KES1 180529Z 16014KT 16/M00 A2981 RMK A01 T01641001  RH  032%=      5-min Rain = 0
KES1 180530Z 16013KT 16/M00 A2981 RMK A01 T01641001  RH  033%=      5-min Rain = 0
KES1 180531Z 16013KT 16/M00 A2981 RMK A01 T01631002  RH  033%=      5-min Rain = 0
KES1 180532Z 16014KT 16/M00 A2981 RMK A01 T01631001  RH  033%=      5-min Rain = 0
KES1 180533Z 16013KT 16/M00 A2981 RMK A01 T01631001  RH  033%=      5-min Rain = 0
KES1 180534Z 16013KT 16/M00 A2981 RMK A01 T01631001  RH  033%=      5-min Rain = 0
KES1 180535Z 16013KT 16/M00 A2981 RMK A01 T01631001  RH  033%=      5-min Rain = 0
KES1 180536Z 16013KT 16/M00 A2981 RMK A01 T01621001  RH  033%=      5-min Rain = 0
KES1 180537Z 16014KT 16/M00 A2981 RMK A01 T01621001  RH  033%=      5-min Rain = 0
KES1 180538Z 17013KT 16/M00 A2981 RMK A01 T01621001  RH  033%=      5-min Rain = 0
KES1 180539Z 16013KT 16/M00 A2981 RMK A01 T01621001  RH  033%=      5-min Rain = 0
KES1 180540Z 17013KT 16/M00 A2981 RMK A01 T01621001  RH  033%=      5-min Rain = 0
KES1 180541Z 16013KT 16/M00 A2981 RMK A01 T01611001  RH  033%=      5-min Rain = 0
KES1 180542Z 16013KT 16/M00 A2981 RMK A01 T01611001  RH  033%=      5-min Rain = 0
KES1 180543Z 16013KT 16/M00 A2981 RMK A01 T01611001  RH  033%=      5-min Rain = 0
KES1 180544Z 16012KT 16/M00 A2981 RMK A01 T01601001  RH  033%=      5-min Rain = 0
KES1 180545Z 16013KT 16/M00 A2981 RMK A01 T01601001  RH  033%=      5-min Rain = 0
KES1 180546Z 16013KT 16/M00 A2981 RMK A01 T01601001  RH  033%=      5-min Rain = 0
KES1 180547Z 16013KT 16/M00 A2981 RMK A01 T01601001  RH  033%=      5-min Rain = 0
KES1 180548Z 16014KT 16/M00 A2981 RMK A01 T01601001  RH  034%=      5-min Rain = 0
KES1 180549Z 17011KT 16/M00 A2982 RMK A01 T01591001  RH  034%=      5-min Rain = 0
KES1 180550Z 16012KT 16/M00 A2982 RMK A01 T01591001  RH  034%=      5-min Rain = 0
KES1 180551Z 17013KT 16/M00 A2982 RMK A01 T01591001  RH  034%=      5-min Rain = 0
KES1 180552Z 16013KT 16/M00 A2982 RMK A01 T01591001  RH  034%=      5-min Rain = 0
KES1 180553Z 16014KT 16/M00 A2982 RMK A01 T01591002  RH  033%=      5-min Rain = 0
KES1 180554Z 16011KT 16/M00 A2982 RMK A01 T01591001  RH  033%=      5-min Rain = 0
KES1 180555Z 16013KT 16/M00 A2981 RMK A01 T01591001  RH  034%=      5-min Rain = 0
KES1 180556Z 16012KT 16/M00 A2981 RMK A01 T01591001  RH  034%=      5-min Rain = 0
KES1 180557Z 16013KT 16/M00 A2981 RMK A01 T01591001  RH  034%=      5-min Rain = 0
KES1 180558Z 16014KT 16/M00 A2981 RMK A01 T01581002  RH  034%=      5-min Rain = 0
KES1 180559Z 16013KT 16/M00 A2981 RMK A01 T01581002  RH  034%=      5-min Rain = 0
KES1 180600Z 16013KT 16/M00 A2981 RMK A01 T01581001  RH  034%=      5-min Rain = 0
KES1 180601Z 16014KT 16/M00 A2981 RMK A01 T01581002  RH  034%=      5-min Rain = 0
KES1 180602Z 16015KT 16/M00 A2981 RMK A01 T01581002  RH  034%=      5-min Rain = 0
KES1 180603Z 16013KT 16/M00 A2981 RMK A01 T01581001  RH  034%=      5-min Rain = 0
KES1 180604Z 16012KT 16/M00 A2981 RMK A01 T01581002  RH  034%=      5-min Rain = 0
KES1 180605Z 16011KT 16/M00 A2981 RMK A01 T01571001  RH  034%=      5-min Rain = 0
KES1 180606Z 16012KT 16/M00 A2981 RMK A01 T01571001  RH  034%=      5-min Rain = 0
KES1 180607Z 17013KT 16/M00 A2981 RMK A01 T01561001  RH  034%=      5-min Rain = 0
KES1 180608Z 16013KT 16/M00 A2981 RMK A01 T01561002  RH  034%=      5-min Rain = 0
KES1 180609Z 17013KT 16/M00 A2981 RMK A01 T01561002  RH  034%=      5-min Rain = 0
KES1 180610Z 17013KT 16/M00 A2981 RMK A01 T01561002  RH  034%=      5-min Rain = 0
KES1 180611Z 17013KT 16/M00 A2981 RMK A01 T01561002  RH  034%=      5-min Rain = 0
KES1 180612Z 16013KT 16/M00 A2981 RMK A01 T01551002  RH  034%=      5-min Rain = 0
KES1 180613Z 17011KT 16/M00 A2981 RMK A01 T01561001  RH  034%=      5-min Rain = 0
KES1 180614Z 16012KT 16/M00 A2981 RMK A01 T01551002  RH  034%=      5-min Rain = 0
KES1 180615Z 17013KT 16/M00 A2981 RMK A01 T01551002  RH  034%=      5-min Rain = 0
KES1 180616Z 17013KT 16/M00 A2981 RMK A01 T01551002  RH  034%=      5-min Rain = 0
KES1 180617Z 16012KT 16/M00 A2981 RMK A01 T01551002  RH  034%=      5-min Rain = 0
KES1 180618Z 16013KT 16/M00 A2981 RMK A01 T01551002  RH  034%=      5-min Rain = 0
KES1 180619Z 16013KT 16/M00 A2981 RMK A01 T01551002  RH  034%=      5-min Rain = 0
KES1 180620Z 16013KT 16/M00 A2981 RMK A01 T01551003  RH  034%=      5-min Rain = 0
KES1 180621Z 17013G18KT 16/M00 A2981 RMK A01 T01551003  RH  034%=      5-min Rain = 0
KES1 180622Z 17012KT 16/M00 A2981 RMK A01 T01551003  RH  034%=      5-min Rain = 0
KES1 180623Z 17011G16KT 16/M00 A2981 RMK A01 T01551003  RH  034%=      5-min Rain = 0
KES1 180624Z 17011KT 16/M00 A2981 RMK A01 T01551003  RH  034%=      5-min Rain = 0
KES1 180625Z 17011KT 16/M00 A2981 RMK A01 T01551003  RH  034%=      5-min Rain = 0
KES1 180626Z 17013KT 15/M00 A2981 RMK A01 T01541003  RH  034%=      5-min Rain = 0
KES1 180627Z 16012KT 16/M00 A2981 RMK A01 T01551003  RH  034%=      5-min Rain = 0
KES1 180628Z 17012KT 15/M00 A2981 RMK A01 T01541003  RH  034%=      5-min Rain = 0
KES1 180629Z 17011KT 15/M00 A2981 RMK A01 T01541003  RH  034%=      5-min Rain = 0
KES1 180630Z 17012KT 16/M00 A2981 RMK A01 T01551003  RH  034%=      5-min Rain = 0
KES1 180631Z 16013KT 15/M00 A2981 RMK A01 T01541004  RH  034%=      5-min Rain = 0
KES1 180632Z 16012KT 16/M00 A2981 RMK A01 T01551004  RH  034%=      5-min Rain = 0
KES1 180633Z 17013KT 15/M00 A2981 RMK A01 T01541003  RH  034%=      5-min Rain = 0
KES1 180634Z 17012KT 15/M00 A2981 RMK A01 T01541004  RH  034%=      5-min Rain = 0
KES1 180635Z 17012KT 15/M00 A2981 RMK A01 T01541004  RH  034%=      5-min Rain = 0
KES1 180636Z 17011KT 15/M00 A2981 RMK A01 T01531003  RH  034%=      5-min Rain = 0
KES1 180637Z 17012KT 15/M00 A2981 RMK A01 T01531004  RH  034%=      5-min Rain = 0
KES1 180638Z 16012KT 15/M00 A2981 RMK A01 T01531004  RH  034%=      5-min Rain = 0
KES1 180639Z 16013KT 15/M00 A2981 RMK A01 T01531004  RH  034%=      5-min Rain = 0
KES1 180640Z 16012KT 15/M00 A2981 RMK A01 T01521004  RH  034%=      5-min Rain = 0
KES1 180641Z 17012KT 15/M00 A2981 RMK A01 T01521004  RH  034%=      5-min Rain = 0
KES1 180642Z 17013KT 15/M00 A2981 RMK A01 T01521004  RH  034%=      5-min Rain = 0
KES1 180643Z 16012KT 15/M00 A2981 RMK A01 T01521004  RH  034%=      5-min Rain = 0
KES1 180644Z 16012KT 15/M00 A2981 RMK A01 T01521004  RH  034%=      5-min Rain = 0
KES1 180645Z 16011KT 15/M01 A2981 RMK A01 T01521005  RH  034%=      5-min Rain = 0
KES1 180646Z 16013KT 15/M00 A2981 RMK A01 T01521004  RH  034%=      5-min Rain = 0
KES1 180647Z 16012KT 15/M00 A2981 RMK A01 T01521004  RH  034%=      5-min Rain = 0
KES1 180648Z 17011KT 15/M00 A2981 RMK A01 T01521004  RH  034%=      5-min Rain = 0
KES1 180649Z 17012KT 15/M00 A2981 RMK A01 T01511004  RH  035%=      5-min Rain = 0
KES1 180650Z 16010KT 15/M00 A2981 RMK A01 T01511004  RH  035%=      5-min Rain = 0
KES1 180651Z 16012KT 15/M00 A2981 RMK A01 T01501004  RH  035%=      5-min Rain = 0
KES1 180652Z 16012KT 15/M00 A2981 RMK A01 T01501004  RH  035%=      5-min Rain = 0
KES1 180653Z 16011KT 15/M01 A2981 RMK A01 T01501005  RH  035%=      5-min Rain = 0
KES1 180654Z 16012KT 15/M00 A2981 RMK A01 T01501004  RH  035%=      5-min Rain = 0
KES1 180655Z 16010G15KT 15/M01 A2981 RMK A01 T01491005  RH  035%=      5-min Rain = 0
KES1 180656Z 16010KT 15/M01 A2981 RMK A01 T01491005  RH  035%=      5-min Rain = 0
KES1 180657Z 16011KT 15/M01 A2981 RMK A01 T01481005  RH  035%=      5-min Rain = 0
KES1 180658Z 16011KT 15/M01 A2981 RMK A01 T01481005  RH  035%=      5-min Rain = 0
KES1 180659Z 17011KT 15/M01 A2981 RMK A01 T01491005  RH  035%=      5-min Rain = 0
KES1 180700Z 16010KT 15/M01 A2981 RMK A01 T01491005  RH  035%=      5-min Rain = 0
KES1 180701Z 16011KT 15/M01 A2981 RMK A01 T01491005  RH  035%=      5-min Rain = 0
KES1 180702Z 16010KT 15/M01 A2981 RMK A01 T01491005  RH  035%=      5-min Rain = 0
KES1 180703Z 17010KT 15/M01 A2981 RMK A01 T01491005  RH  035%=      5-min Rain = 0
KES1 180704Z 16011KT 15/M01 A2981 RMK A01 T01491005  RH  035%=      5-min Rain = 0
KES1 180705Z 16010KT 15/M01 A2981 RMK A01 T01481005  RH  035%=      5-min Rain = 0
KES1 180706Z 16011KT 15/M01 A2981 RMK A01 T01481005  RH  035%=      5-min Rain = 0
KES1 180707Z 17009KT 15/M01 A2981 RMK A01 T01481005  RH  035%=      5-min Rain = 0
KES1 180708Z 16009KT 15/M01 A2981 RMK A01 T01481005  RH  035%=      5-min Rain = 0
KES1 180709Z 17009KT 15/M01 A2981 RMK A01 T01481005  RH  035%=      5-min Rain = 0
KES1 180710Z 17009KT 15/M01 A2981 RMK A01 T01481005  RH  035%=      5-min Rain = 0
KES1 180711Z 18007KT 15/M01 A2981 RMK A01 T01481005  RH  035%=      5-min Rain = 0
KES1 180712Z 17009KT 15/M01 A2981 RMK A01 T01471005  RH  035%=      5-min Rain = 0
KES1 180713Z 17010KT 15/M01 A2981 RMK A01 T01461005  RH  035%=      5-min Rain = 0
KES1 180714Z 17007KT 15/M01 A2981 RMK A01 T01461005  RH  035%=      5-min Rain = 0
KES1 180715Z 17008KT 15/M01 A2981 RMK A01 T01461005  RH  036%=      5-min Rain = 0
KES1 180716Z 17008KT 15/M01 A2981 RMK A01 T01451005  RH  036%=      5-min Rain = 0
KES1 180717Z 17008KT 14/M01 A2981 RMK A01 T01441005  RH  036%=      5-min Rain = 0
KES1 180718Z 17009KT 14/M00 A2981 RMK A01 T01441004  RH  036%=      5-min Rain = 0
KES1 180719Z 16009KT 14/M01 A2981 RMK A01 T01441005  RH  036%=      5-min Rain = 0
KES1 180720Z 17009KT 14/M01 A298 RMK A01 T01441005  RH  036%=      5-min Rain = 0
KES1 180721Z 16009KT 14/M01 A298 RMK A01 T01431005  RH  036%=      5-min Rain = 0
KES1 180722Z 17009KT 14/M01 A298 RMK A01 T01431005  RH  036%=      5-min Rain = 0
KES1 180723Z 16010KT 14/M01 A298 RMK A01 T01431005  RH  036%=      5-min Rain = 0
KES1 180724Z 16010KT 14/M01 A298 RMK A01 T01431005  RH  036%=      5-min Rain = 0
KES1 180725Z 16010KT 14/M01 A298 RMK A01 T01431005  RH  036%=      5-min Rain = 0
KES1 180726Z 16011KT 14/M01 A298 RMK A01 T01431005  RH  036%=      5-min Rain = 0
KES1 180727Z 16011KT 14/M01 A298 RMK A01 T01431005  RH  036%=      5-min Rain = 0
KES1 180728Z 16011KT 14/M01 A298 RMK A01 T01431005  RH  036%=      5-min Rain = 0
KES1 180729Z 16010KT 14/M01 A298 RMK A01 T01431005  RH  036%=      5-min Rain = 0
KES1 180730Z 16011KT 14/M01 A298 RMK A01 T01431005  RH  036%=      5-min Rain = 0
KES1 180731Z 16010KT 14/M01 A298 RMK A01 T01421005  RH  036%=      5-min Rain = 0
KES1 180732Z 16010KT 14/M01 A298 RMK A01 T01421005  RH  037%=      5-min Rain = 0
KES1 180733Z 16011KT 14/M01 A298 RMK A01 T01411005  RH  037%=      5-min Rain = 0
KES1 180734Z 16010KT 14/M00 A298 RMK A01 T01411004  RH  037%=      5-min Rain = 0
KES1 180735Z 16010KT 14/M00 A298 RMK A01 T01401004  RH  037%=      5-min Rain = 0
KES1 180736Z 16011KT 14/M00 A298 RMK A01 T01401004  RH  037%=      5-min Rain = 0
KES1 180737Z 15011KT 14/M00 A298 RMK A01 T01401004  RH  037%=      5-min Rain = 0
KES1 180738Z 16012KT 14/M00 A298 RMK A01 T01401004  RH  037%=      5-min Rain = 0
KES1 180739Z 16011KT 14/M00 A298 RMK A01 T01401004  RH  037%=      5-min Rain = 0
KES1 180740Z 16010KT 14/M00 A298 RMK A01 T01391004  RH  037%=      5-min Rain = 0
KES1 180741Z 16009KT 14/M00 A298 RMK A01 T01391004  RH  037%=      5-min Rain = 0
KES1 180742Z 16011KT 14/M00 A298 RMK A01 T01391004  RH  037%=      5-min Rain = 0
KES1 180743Z 16010KT 14/M00 A2979 RMK A01 T01391004  RH  037%=      5-min Rain = 0
KES1 180744Z 16009KT 14/M00 A2979 RMK A01 T01391004  RH  037%=      5-min Rain = 0
KES1 180745Z 16010KT 14/M00 A298 RMK A01 T01391004  RH  037%=      5-min Rain = 0
KES1 180746Z 16010KT 14/M00 A298 RMK A01 T01391004  RH  037%=      5-min Rain = 0
KES1 180747Z 16011KT 14/M00 A298 RMK A01 T01391004  RH  037%=      5-min Rain = 0
KES1 180748Z 16010KT 14/M00 A298 RMK A01 T01391004  RH  037%=      5-min Rain = 0
KES1 180749Z 16011KT 14/M00 A298 RMK A01 T01401004  RH  037%=      5-min Rain = 0
KES1 180750Z 17009KT 14/M00 A298 RMK A01 T01401004  RH  037%=      5-min Rain = 0
KES1 180751Z 17009KT 14/M00 A298 RMK A01 T01401004  RH  037%=      5-min Rain = 0
KES1 180752Z 17008KT 14/M00 A298 RMK A01 T01391004  RH  037%=      5-min Rain = 0
KES1 180753Z 17008KT 14/M00 A298 RMK A01 T01391003  RH  038%=      5-min Rain = 0
KES1 180754Z 17008KT 14/M00 A298 RMK A01 T01391003  RH  038%=      5-min Rain = 0
KES1 180755Z 17008KT 14/M00 A298 RMK A01 T01381003  RH  038%=      5-min Rain = 0
KES1 180756Z 17008KT 14/M00 A298 RMK A01 T01371003  RH  038%=      5-min Rain = 0
KES1 180757Z 17009KT 14/M00 A298 RMK A01 T01371003  RH  038%=      5-min Rain = 0
KES1 180758Z 17009KT 14/M00 A298 RMK A01 T01371003  RH  038%=      5-min Rain = 0
KES1 180759Z 17009KT 14/M00 A298 RMK A01 T01371003  RH  038%=      5-min Rain = 0
KES1 180800Z 17010KT 14/M00 A298 RMK A01 T01371003  RH  038%=      5-min Rain = 0
KES1 180801Z 17009KT 14/M00 A298 RMK A01 T01361003  RH  038%=      5-min Rain = 0
KES1 180802Z 17010KT 14/M00 A298 RMK A01 T01361003  RH  038%=      5-min Rain = 0
KES1 180803Z 18010KT 14/M00 A298 RMK A01 T01361003  RH  038%=      5-min Rain = 0
KES1 180804Z 17007KT 14/M00 A298 RMK A01 T01371003  RH  038%=      5-min Rain = 0
KES1 180805Z 17008KT 14/M00 A298 RMK A01 T01371002  RH  038%=      5-min Rain = 0
KES1 180806Z 17008KT 14/M00 A298 RMK A01 T01361002  RH  039%=      5-min Rain = 0
KES1 180807Z 17009KT 14/M00 A298 RMK A01 T01361002  RH  039%=      5-min Rain = 0
KES1 180808Z 17007KT 14/M00 A298 RMK A01 T01351002  RH  039%=      5-min Rain = 0
KES1 180809Z 17008KT 14/M00 A298 RMK A01 T01351002  RH  039%=      5-min Rain = 0
KES1 180810Z 18007KT 14/M00 A298 RMK A01 T01351002  RH  039%=      5-min Rain = 0
KES1 180811Z 18010KT 14/M00 A298 RMK A01 T01351002  RH  039%=      5-min Rain = 0
KES1 180812Z 17010KT 14/M00 A298 RMK A01 T01351002  RH  039%=      5-min Rain = 0
KES1 180813Z 18009KT 14/M00 A298 RMK A01 T01351002  RH  039%=      5-min Rain = 0
KES1 180814Z 18010KT 14/M00 A298 RMK A01 T01351002  RH  039%=      5-min Rain = 0
KES1 180815Z 18009KT 14/M00 A298 RMK A01 T01361002  RH  039%=      5-min Rain = 0
KES1 180816Z 18008KT 14/M00 A298 RMK A01 T01361001  RH  039%=      5-min Rain = 0
KES1 180817Z 19009KT 14/M00 A298 RMK A01 T01351001  RH  039%=      5-min Rain = 0
KES1 180818Z 18008KT 14/M00 A298 RMK A01 T01351001  RH  039%=      5-min Rain = 0
KES1 180819Z 17008KT 14/M00 A298 RMK A01 T01351001  RH  039%=      5-min Rain = 0
KES1 180820Z 17007KT 13/M00 A298 RMK A01 T01341001  RH  040%=      5-min Rain = 0
KES1 180821Z 17008KT 13/M00 A298 RMK A01 T01331001  RH  040%=      5-min Rain = 0
KES1 180822Z 17008KT 13/M00 A298 RMK A01 T01321001  RH  040%=      5-min Rain = 0
KES1 180823Z 18009KT 13/M00 A298 RMK A01 T01311001  RH  040%=      5-min Rain = 0
KES1 180824Z 18009KT 13/00 A298 RMK A01 T013100-0  RH  040%=      5-min Rain = 0
KES1 180825Z 17009KT 13/00 A2979 RMK A01 T013200-0  RH  040%=      5-min Rain = 0
KES1 180826Z 17008KT 13/00 A2979 RMK A01 T013200-0  RH  040%=      5-min Rain = 0
KES1 180827Z 18009KT 13/00 A2979 RMK A01 T013200-0  RH  040%=      5-min Rain = 0
KES1 180828Z 17008KT 13/00 A2979 RMK A01 T013200-0  RH  040%=      5-min Rain = 0
KES1 180829Z 17008KT 13/00 A2979 RMK A01 T013200-0  RH  040%=      5-min Rain = 0
KES1 180830Z 17008KT 13/00 A2979 RMK A01 T01320000  RH  040%=      5-min Rain = 0
KES1 180831Z 17009KT 13/00 A2979 RMK A01 T01320001  RH  041%=      5-min Rain = 0
KES1 180832Z 17008KT 13/00 A2979 RMK A01 T01320001  RH  041%=      5-min Rain = 0
KES1 180833Z 17009KT 13/00 A2979 RMK A01 T01310001  RH  041%=      5-min Rain = 0
KES1 180834Z 17009KT 13/00 A2979 RMK A01 T01310000  RH  041%=      5-min Rain = 0
KES1 180835Z 17009KT 13/00 A2979 RMK A01 T01320001  RH  041%=      5-min Rain = 0
KES1 180836Z 17009KT 13/00 A2979 RMK A01 T01320001  RH  041%=      5-min Rain = 0
KES1 180837Z 17009KT 13/00 A2979 RMK A01 T01320001  RH  041%=      5-min Rain = 0
KES1 180838Z 17010KT 13/00 A2979 RMK A01 T01320001  RH  041%=      5-min Rain = 0
KES1 180839Z 17009KT 13/00 A2979 RMK A01 T01320002  RH  041%=      5-min Rain = 0
KES1 180840Z 18008KT 13/00 A2979 RMK A01 T01320002  RH  041%=      5-min Rain = 0
KES1 180841Z 18010KT 13/00 A2978 RMK A01 T01320002  RH  041%=      5-min Rain = 0
KES1 180842Z 18009KT 13/00 A2978 RMK A01 T01320002  RH  041%=      5-min Rain = 0
KES1 180843Z 18010KT 13/00 A2978 RMK A01 T01320002  RH  041%=      5-min Rain = 0
KES1 180844Z 18009KT 13/00 A2978 RMK A01 T01320002  RH  041%=      5-min Rain = 0
KES1 180845Z 17008KT 13/00 A2978 RMK A01 T01320002  RH  041%=      5-min Rain = 0
KES1 180846Z 17008KT 13/00 A2978 RMK A01 T01320002  RH  041%=      5-min Rain = 0
KES1 180847Z 18009KT 13/00 A2978 RMK A01 T01320002  RH  041%=      5-min Rain = 0
KES1 180848Z 18008KT 13/00 A2978 RMK A01 T01310002  RH  041%=      5-min Rain = 0
KES1 180849Z 18008KT 13/00 A2978 RMK A01 T01300002  RH  041%=      5-min Rain = 0
KES1 180850Z 18009KT 13/00 A2978 RMK A01 T01300003  RH  042%=      5-min Rain = 0
KES1 180851Z 17009KT 13/00 A2978 RMK A01 T01300003  RH  042%=      5-min Rain = 0
KES1 180852Z 17009KT 13/00 A2978 RMK A01 T01300003  RH  042%=      5-min Rain = 0
KES1 180853Z 17009KT 13/00 A2978 RMK A01 T01300003  RH  042%=      5-min Rain = 0
KES1 180854Z 17009KT 13/00 A2978 RMK A01 T01310003  RH  041%=      5-min Rain = 0
KES1 180855Z 18009KT 13/00 A2978 RMK A01 T01320003  RH  041%=      5-min Rain = 0
KES1 180856Z 18008G13KT 13/00 A2978 RMK A01 T01320003  RH  041%=      5-min Rain = 0
KES1 180857Z 17009KT 13/00 A2978 RMK A01 T01320003  RH  041%=      5-min Rain = 0
KES1 180858Z 17007KT 13/00 A2978 RMK A01 T01310004  RH  042%=      5-min Rain = 0
KES1 180859Z 17008KT 13/00 A2978 RMK A01 T01300004  RH  042%=      5-min Rain = 0
KES1 180900Z 17008KT 13/00 A2978 RMK A01 T01290004  RH  042%=      5-min Rain = 0
KES1 180901Z 17008KT 13/00 A2978 RMK A01 T01280004  RH  042%=      5-min Rain = 0
KES1 180902Z 18008KT 13/00 A2978 RMK A01 T01280004  RH  043%=      5-min Rain = 0
KES1 180903Z 17008KT 13/00 A2978 RMK A01 T01280004  RH  043%=      5-min Rain = 0
KES1 180904Z 18007KT 13/00 A2978 RMK A01 T01270004  RH  043%=      5-min Rain = 0
KES1 180905Z 18007KT 13/00 A2978 RMK A01 T01260004  RH  043%=      5-min Rain = 0
KES1 180906Z 17008KT 13/01 A2978 RMK A01 T01260005  RH  043%=      5-min Rain = 0
KES1 180907Z 17007KT 13/01 A2978 RMK A01 T01260005  RH  043%=      5-min Rain = 0
KES1 180908Z 17009KT 13/01 A2978 RMK A01 T01260005  RH  043%=      5-min Rain = 0
KES1 180909Z 17006KT 13/01 A2978 RMK A01 T01260005  RH  044%=      5-min Rain = 0
KES1 180910Z 17007KT 13/01 A2978 RMK A01 T01250005  RH  044%=      5-min Rain = 0
KES1 180911Z 17008KT 13/01 A2978 RMK A01 T01250005  RH  044%=      5-min Rain = 0
KES1 180912Z 17007KT 13/01 A2978 RMK A01 T01250005  RH  044%=      5-min Rain = 0
KES1 180913Z 17006KT 13/01 A2978 RMK A01 T01250005  RH  044%=      5-min Rain = 0
KES1 180914Z 17007KT 13/01 A2978 RMK A01 T01250005  RH  044%=      5-min Rain = 0
KES1 180915Z 17009KT 13/01 A2978 RMK A01 T01250005  RH  044%=      5-min Rain = 0
KES1 180916Z 17008KT 13/01 A2978 RMK A01 T01250006  RH  044%=      5-min Rain = 0
KES1 180917Z 17007KT 13/01 A2978 RMK A01 T01250005  RH  044%=      5-min Rain = 0
KES1 180918Z 17007KT 13/01 A2978 RMK A01 T01250006  RH  044%=      5-min Rain = 0
KES1 180919Z 17007KT 13/01 A2978 RMK A01 T01250006  RH  044%=      5-min Rain = 0
KES1 180920Z 17007KT 13/01 A2978 RMK A01 T01250006  RH  044%=      5-min Rain = 0
KES1 180921Z 17007KT 13/01 A2978 RMK A01 T01260006  RH  044%=      5-min Rain = 0
KES1 180922Z 17006KT 13/01 A2978 RMK A01 T01260006  RH  044%=      5-min Rain = 0
KES1 180923Z 17006KT 13/01 A2978 RMK A01 T01260006  RH  044%=      5-min Rain = 0
KES1 180924Z 17005KT 13/01 A2978 RMK A01 T01260005  RH  044%=      5-min Rain = 0
KES1 180925Z 17006KT 13/01 A2978 RMK A01 T01260005  RH  044%=      5-min Rain = 0
KES1 180926Z 17005KT 13/01 A2978 RMK A01 T01260006  RH  044%=      5-min Rain = 0
KES1 180927Z 17005KT 13/01 A2978 RMK A01 T01260006  RH  044%=      5-min Rain = 0
KES1 180928Z 17005KT 13/01 A2978 RMK A01 T01260006  RH  044%=      5-min Rain = 0
KES1 180929Z 18004KT 13/01 A2978 RMK A01 T01250006  RH  044%=      5-min Rain = 0
KES1 180930Z 17004KT 13/01 A2978 RMK A01 T01250006  RH  044%=      5-min Rain = 0
KES1 180931Z 18003KT 13/01 A2978 RMK A01 T01250006  RH  044%=      5-min Rain = 0
KES1 180932Z 17002KT 13/01 A2978 RMK A01 T01250006  RH  044%=      5-min Rain = 0
KES1 180933Z 17002KT 12/01 A2978 RMK A01 T01240006  RH  044%=      5-min Rain = 0
KES1 180934Z 18002KT 12/01 A2978 RMK A01 T01240006  RH  044%=      5-min Rain = 0
KES1 180935Z 19002KT 12/01 A2978 RMK A01 T01240006  RH  044%=      5-min Rain = 0
KES1 180936Z 18002KT 12/01 A2978 RMK A01 T01240006  RH  045%=      5-min Rain = 0
KES1 180937Z 17002KT 12/01 A2978 RMK A01 T01230006  RH  045%=      5-min Rain = 0
KES1 180938Z 17001KT 12/01 A2978 RMK A01 T01230006  RH  045%=      5-min Rain = 0
KES1 180939Z 17002KT 12/01 A2978 RMK A01 T01220006  RH  045%=      5-min Rain = 0
KES1 180940Z 20001KT 12/01 A2977 RMK A01 T01210006  RH  045%=      5-min Rain = 0
KES1 180941Z 20001KT 12/01 A2978 RMK A01 T01210006  RH  045%=      5-min Rain = 0
KES1 180942Z 22000KT 12/01 A2978 RMK A01 T01210006  RH  045%=      5-min Rain = 0
KES1 180943Z 24000KT 12/01 A2978 RMK A01 T01200006  RH  045%=      5-min Rain = 0
KES1 180944Z 00000KT 12/01 A2978 RMK A01 T01200006  RH  046%=      5-min Rain = 0
KES1 180945Z 31000KT 12/01 A2978 RMK A01 T01200006  RH  046%=      5-min Rain = 0
KES1 180946Z 35001KT 12/01 A2978 RMK A01 T01190006  RH  046%=      5-min Rain = 0
KES1 180947Z 36002KT 12/01 A2978 RMK A01 T01180006  RH  046%=      5-min Rain = 0
KES1 180948Z 00002KT 12/01 A2978 RMK A01 T01160006  RH  047%=      5-min Rain = 0
KES1 180949Z 02002KT 12/01 A2978 RMK A01 T01160006  RH  047%=      5-min Rain = 0
KES1 180950Z 02002KT 12/01 A2978 RMK A01 T01160006  RH  047%=      5-min Rain = 0
KES1 180951Z 36001KT 12/01 A2978 RMK A01 T01160007  RH  047%=      5-min Rain = 0
KES1 180952Z 02000KT 12/01 A2978 RMK A01 T01160007  RH  047%=      5-min Rain = 0
KES1 180953Z 07000KT 12/01 A2978 RMK A01 T01160006  RH  047%=      5-min Rain = 0
KES1 180954Z 04000KT 12/01 A2978 RMK A01 T01170007  RH  047%=      5-min Rain = 0
KES1 180955Z 06001KT 12/01 A2978 RMK A01 T01170007  RH  047%=      5-min Rain = 0
KES1 180956Z 08002KT 12/01 A2977 RMK A01 T01170007  RH  047%=      5-min Rain = 0
KES1 180957Z 10002KT 12/01 A2977 RMK A01 T01170006  RH  047%=      5-min Rain = 0
KES1 180958Z 09002KT 12/01 A2977 RMK A01 T01160006  RH  047%=      5-min Rain = 0
KES1 180959Z 09002KT 11/01 A2977 RMK A01 T01140006  RH  047%=      5-min Rain = 0
KES1 181000Z 10003KT 11/01 A2977 RMK A01 T01110005  RH  048%=      5-min Rain = 0
KES1 181001Z 10002KT 11/01 A2977 RMK A01 T01080005  RH  049%=      5-min Rain = 0
KES1 181002Z 10003KT 11/01 A2977 RMK A01 T01060006  RH  050%=      5-min Rain = 0
KES1 181003Z 10003KT 11/01 A2977 RMK A01 T01060006  RH  050%=      5-min Rain = 0
KES1 181004Z 10003KT 11/01 A2977 RMK A01 T01050006  RH  050%=      5-min Rain = 0
KES1 181005Z 10003KT 10/01 A2977 RMK A01 T01040006  RH  051%=      5-min Rain = 0
KES1 181006Z 10003KT 10/01 A2977 RMK A01 T01040007  RH  051%=      5-min Rain = 0
KES1 181007Z 10003KT 10/01 A2977 RMK A01 T01030007  RH  051%=      5-min Rain = 0
KES1 181008Z 11003KT 10/01 A2977 RMK A01 T01020007  RH  052%=      5-min Rain = 0
KES1 181009Z 11003KT 10/01 A2977 RMK A01 T01020007  RH  051%=      5-min Rain = 0
KES1 181010Z 12003KT 10/01 A2977 RMK A01 T01040007  RH  051%=      5-min Rain = 0
KES1 181011Z 12002KT 10/01 A2977 RMK A01 T01040007  RH  051%=      5-min Rain = 0
KES1 181012Z 12003KT 10/01 A2977 RMK A01 T01040007  RH  051%=      5-min Rain = 0
KES1 181013Z 13003KT 11/01 A2977 RMK A01 T01050007  RH  051%=      5-min Rain = 0
KES1 181014Z 12003KT 11/01 A2977 RMK A01 T01050007  RH  051%=      5-min Rain = 0
KES1 181015Z 14003KT 11/01 A2977 RMK A01 T01050007  RH  051%=      5-min Rain = 0
KES1 181016Z 13003KT 11/01 A2977 RMK A01 T01060007  RH  050%=      5-min Rain = 0
KES1 181017Z 13003KT 11/01 A2977 RMK A01 T01060007  RH  050%=      5-min Rain = 0
KES1 181018Z 14003KT 11/01 A2977 RMK A01 T01070007  RH  050%=      5-min Rain = 0
KES1 181019Z 14003KT 11/01 A2977 RMK A01 T01080007  RH  050%=      5-min Rain = 0
KES1 181020Z 13002KT 11/01 A2977 RMK A01 T01080007  RH  050%=      5-min Rain = 0
KES1 181021Z 15002KT 11/01 A2977 RMK A01 T01080007  RH  050%=      5-min Rain = 0
KES1 181022Z 15002KT 11/01 A2977 RMK A01 T01090007  RH  049%=      5-min Rain = 0
KES1 181023Z 14003KT 11/01 A2978 RMK A01 T01100007  RH  049%=      5-min Rain = 0
KES1 181024Z 14002KT 11/01 A2977 RMK A01 T01100007  RH  049%=      5-min Rain = 0
KES1 181025Z 15002KT 11/01 A2977 RMK A01 T01100007  RH  049%=      5-min Rain = 0
KES1 181026Z 15002KT 11/01 A2977 RMK A01 T01110007  RH  049%=      5-min Rain = 0
KES1 181027Z 15000KT 11/01 A2977 RMK A01 T01100007  RH  049%=      5-min Rain = 0
KES1 181028Z 15001KT 11/01 A2977 RMK A01 T01100007  RH  049%=      5-min Rain = 0
KES1 181029Z 19001KT 11/01 A2977 RMK A01 T01100007  RH  049%=      5-min Rain = 0
KES1 181030Z 18001KT 11/01 A2977 RMK A01 T01090007  RH  050%=      5-min Rain = 0
KES1 181031Z 18001KT 11/01 A2977 RMK A01 T01080007  RH  050%=      5-min Rain = 0
KES1 181032Z 16001KT 11/01 A2977 RMK A01 T01080007  RH  050%=      5-min Rain = 0
KES1 181033Z 15002KT 11/01 A2977 RMK A01 T01080007  RH  049%=      5-min Rain = 0
KES1 181034Z 15001KT 11/01 A2977 RMK A01 T01090007  RH  049%=      5-min Rain = 0
KES1 181035Z 15002KT 11/01 A2977 RMK A01 T01090007  RH  049%=      5-min Rain = 0
KES1 181036Z 15001KT 11/01 A2977 RMK A01 T01090007  RH  049%=      5-min Rain = 0
KES1 181037Z 16001KT 11/01 A2977 RMK A01 T01100007  RH  049%=      5-min Rain = 0
KES1 181038Z 16002KT 11/01 A2977 RMK A01 T01110007  RH  049%=      5-min Rain = 0
KES1 181039Z 16002KT 11/01 A2977 RMK A01 T01110007  RH  048%=      5-min Rain = 0
KES1 181040Z 15002KT 11/01 A2977 RMK A01 T01110006  RH  048%=      5-min Rain = 0
KES1 181041Z 14003KT 11/01 A2977 RMK A01 T01120006  RH  048%=      5-min Rain = 0
KES1 181042Z 15003KT 11/01 A2977 RMK A01 T01140007  RH  048%=      5-min Rain = 0
KES1 181043Z 14002KT 12/01 A2977 RMK A01 T01160008  RH  047%=      5-min Rain = 0
KES1 181044Z 14002KT 12/01 A2977 RMK A01 T01170008  RH  047%=      5-min Rain = 0
KES1 181045Z 14001KT 12/01 A2977 RMK A01 T01170008  RH  047%=      5-min Rain = 0
KES1 181046Z 12001KT 12/01 A2977 RMK A01 T01170007  RH  047%=      5-min Rain = 0
KES1 181047Z 10000KT 12/01 A2977 RMK A01 T01180007  RH  046%=      5-min Rain = 0
KES1 181048Z 11001KT 12/01 A2977 RMK A01 T01180007  RH  046%=      5-min Rain = 0
KES1 181049Z 10001KT 12/01 A2977 RMK A01 T01180007  RH  046%=      5-min Rain = 0
KES1 181050Z 07000KT 12/01 A2977 RMK A01 T01180007  RH  046%=      5-min Rain = 0
KES1 181051Z 09001KT 12/01 A2977 RMK A01 T01180007  RH  046%=      5-min Rain = 0
KES1 181052Z 09001KT 12/01 A2977 RMK A01 T01170007  RH  047%=      5-min Rain = 0
KES1 181053Z 11001KT 12/01 A2977 RMK A01 T01160007  RH  047%=      5-min Rain = 0
KES1 181054Z 10001KT 12/01 A2977 RMK A01 T01150007  RH  047%=      5-min Rain = 0
KES1 181055Z 10001KT 11/01 A2977 RMK A01 T01140007  RH  048%=      5-min Rain = 0
KES1 181056Z 09001KT 11/01 A2977 RMK A01 T01140007  RH  048%=      5-min Rain = 0
KES1 181057Z 09001KT 11/01 A2977 RMK A01 T01130007  RH  048%=      5-min Rain = 0
KES1 181058Z 08001KT 11/01 A2977 RMK A01 T01120007  RH  048%=      5-min Rain = 0
KES1 181059Z 08002KT 11/01 A2977 RMK A01 T01110007  RH  049%=      5-min Rain = 0
KES1 181100Z 08001KT 11/01 A2977 RMK A01 T01110007  RH  049%=      5-min Rain = 0
KES1 181101Z 07001KT 11/01 A2977 RMK A01 T01100007  RH  049%=      5-min Rain = 0
KES1 181102Z 07002KT 11/01 A2977 RMK A01 T01100007  RH  049%=      5-min Rain = 0
KES1 181103Z 07001KT 11/01 A2977 RMK A01 T01100007  RH  049%=      5-min Rain = 0
KES1 181104Z 08001KT 11/01 A2977 RMK A01 T01090007  RH  049%=      5-min Rain = 0
KES1 181105Z 09001KT 11/01 A2977 RMK A01 T01090007  RH  049%=      5-min Rain = 0
KES1 181106Z 09001KT 11/01 A2977 RMK A01 T01090007  RH  049%=      5-min Rain = 0
KES1 181107Z 08001KT 11/01 A2977 RMK A01 T01090007  RH  049%=      5-min Rain = 0
KES1 181108Z 08001KT 11/01 A2977 RMK A01 T01090008  RH  050%=      5-min Rain = 0
KES1 181109Z 07001KT 11/01 A2977 RMK A01 T01080008  RH  050%=      5-min Rain = 0
KES1 181110Z 07002KT 11/01 A2977 RMK A01 T01080008  RH  050%=      5-min Rain = 0
KES1 181111Z 08002KT 11/01 A2977 RMK A01 T01070008  RH  050%=      5-min Rain = 0
KES1 181112Z 08002KT 11/01 A2977 RMK A01 T01070008  RH  050%=      5-min Rain = 0
KES1 181113Z 09002KT 11/01 A2977 RMK A01 T01070008  RH  051%=      5-min Rain = 0
KES1 181114Z 09003KT 11/01 A2977 RMK A01 T01050008  RH  051%=      5-min Rain = 0
KES1 181115Z 10002KT 10/01 A2977 RMK A01 T01040008  RH  051%=      5-min Rain = 0
KES1 181116Z 11003KT 10/01 A2977 RMK A01 T01030008  RH  052%=      5-min Rain = 0
KES1 181117Z 11003KT 10/01 A2977 RMK A01 T01010008  RH  052%=      5-min Rain = 0
KES1 181118Z 12004KT 10/01 A2977 RMK A01 T01000008  RH  053%=      5-min Rain = 0
KES1 181119Z 12003KT 10/01 A2977 RMK A01 T00990008  RH  053%=      5-min Rain = 0
KES1 181120Z 12003KT 10/01 A2978 RMK A01 T00980008  RH  053%=      5-min Rain = 0
KES1 181121Z 12003KT 10/01 A2978 RMK A01 T00980008  RH  054%=      5-min Rain = 0
KES1 181122Z 12004KT 10/01 A2978 RMK A01 T00980009  RH  054%=      5-min Rain = 0
KES1 181123Z 12003KT 10/01 A2978 RMK A01 T00980008  RH  054%=      5-min Rain = 0
KES1 181124Z 12003KT 10/01 A2978 RMK A01 T00980009  RH  054%=      5-min Rain = 0
KES1 181125Z 11002KT 10/01 A2978 RMK A01 T00980009  RH  054%=      5-min Rain = 0
KES1 181126Z 10002KT 10/01 A2978 RMK A01 T00980009  RH  054%=      5-min Rain = 0
KES1 181127Z 07002KT 10/01 A2978 RMK A01 T00970010  RH  054%=      5-min Rain = 0
KES1 181128Z 06002KT 10/01 A2978 RMK A01 T00970010  RH  055%=      5-min Rain = 0
KES1 181129Z 05003KT 10/01 A2978 RMK A01 T00960010  RH  055%=      5-min Rain = 0
KES1 181130Z 04003KT 10/01 A2978 RMK A01 T00960010  RH  055%=      5-min Rain = 0
KES1 181131Z 04003KT 10/01 A2978 RMK A01 T00960010  RH  055%=      5-min Rain = 0
KES1 181132Z 04003KT 10/01 A2978 RMK A01 T00960010  RH  055%=      5-min Rain = 0
KES1 181133Z 05003KT 10/01 A2978 RMK A01 T00960010  RH  055%=      5-min Rain = 0
KES1 181134Z 05003KT 10/01 A2978 RMK A01 T00970011  RH  055%=      5-min Rain = 0
KES1 181135Z 05004KT 10/01 A2978 RMK A01 T00980011  RH  055%=      5-min Rain = 0
KES1 181136Z 06004KT 10/01 A2978 RMK A01 T00990011  RH  054%=      5-min Rain = 0
KES1 181137Z 06004KT 10/01 A2978 RMK A01 T00990010  RH  054%=      5-min Rain = 0
KES1 181138Z 07004KT 10/01 A2978 RMK A01 T00990010  RH  054%=      5-min Rain = 0
KES1 181139Z 07005KT 10/01 A2978 RMK A01 T00950009  RH  055%=      5-min Rain = 0
KES1 181140Z 07005KT 09/01 A2978 RMK A01 T00900008  RH  056%=      5-min Rain = 0
KES1 181141Z 08005KT 09/01 A2978 RMK A01 T00880009  RH  058%=      5-min Rain = 0
KES1 181142Z 08005KT 09/01 A2978 RMK A01 T00870009  RH  058%=      5-min Rain = 0
KES1 181143Z 08005KT 09/01 A2978 RMK A01 T00870009  RH  058%=      5-min Rain = 0
KES1 181144Z 08005KT 09/01 A2978 RMK A01 T00880010  RH  058%=      5-min Rain = 0
KES1 181145Z 09005KT 09/01 A2978 RMK A01 T00880009  RH  058%=      5-min Rain = 0
KES1 181146Z 09004KT 09/01 A2978 RMK A01 T00890010  RH  058%=      5-min Rain = 0
KES1 181147Z 09004KT 09/01 A2978 RMK A01 T00890010  RH  058%=      5-min Rain = 0
KES1 181148Z 10004KT 09/01 A2978 RMK A01 T00900010  RH  057%=      5-min Rain = 0
KES1 181149Z 10003KT 09/01 A2978 RMK A01 T00910010  RH  057%=      5-min Rain = 0
KES1 181150Z 11003KT 09/01 A2978 RMK A01 T00910010  RH  057%=      5-min Rain = 0
KES1 181151Z 11003KT 09/01 A2978 RMK A01 T00910010  RH  057%=      5-min Rain = 0
KES1 181152Z 12002KT 09/01 A2978 RMK A01 T00910010  RH  057%=      5-min Rain = 0
KES1 181153Z 17001KT 09/01 A2979 RMK A01 T00910010  RH  057%=      5-min Rain = 0
KES1 181154Z 24002KT 09/01 A2979 RMK A01 T00900010  RH  057%=      5-min Rain = 0
KES1 181155Z 25002KT 09/01 A2979 RMK A01 T00890010  RH  058%=      5-min Rain = 0
KES1 181156Z 25002KT 09/01 A2979 RMK A01 T00880010  RH  058%=      5-min Rain = 0
KES1 181157Z 20001KT 09/01 A2979 RMK A01 T00880010  RH  058%=      5-min Rain = 0
KES1 181158Z 14001KT 09/01 A2978 RMK A01 T00870009  RH  058%=      5-min Rain = 0
KES1 181159Z 14002KT 09/01 A2978 RMK A01 T00870009  RH  058%=      5-min Rain = 0
KES1 181200Z 14001KT 09/01 A2979 RMK A01 T00860011  RH  059%=      5-min Rain = 0
KES1 181201Z 15001KT 08/01 A2979 RMK A01 T00840010  RH  060%=      5-min Rain = 0
KES1 181202Z 19000KT 08/01 A2979 RMK A01 T00840010  RH  060%=      5-min Rain = 0
KES1 181203Z 28000KT 08/01 A2979 RMK A01 T00830010  RH  060%=      5-min Rain = 0
KES1 181204Z 30001KT 08/01 A2979 RMK A01 T00840009  RH  060%=      5-min Rain = 0
KES1 181205Z 33002KT 09/01 A2979 RMK A01 T00850010  RH  059%=      5-min Rain = 0
KES1 181206Z 33001KT 09/01 A2979 RMK A01 T00850011  RH  059%=      5-min Rain = 0
KES1 181207Z 32001KT 09/01 A2979 RMK A01 T00860011  RH  059%=      5-min Rain = 0
KES1 181208Z 00000KT 09/01 A2979 RMK A01 T00850010  RH  059%=      5-min Rain = 0
KES1 181209Z 05001KT 09/01 A2979 RMK A01 T00850009  RH  059%=      5-min Rain = 0
KES1 181210Z 05001KT 08/01 A2979 RMK A01 T00830010  RH  060%=      5-min Rain = 0
KES1 181211Z 06001KT 08/01 A2979 RMK A01 T00810010  RH  061%=      5-min Rain = 0
KES1 181212Z 06001KT 08/01 A2979 RMK A01 T00790010  RH  061%=      5-min Rain = 0
KES1 181213Z 05002KT 08/01 A2979 RMK A01 T00780010  RH  062%=      5-min Rain = 0
KES1 181214Z 05002KT 08/01 A2979 RMK A01 T00780010  RH  062%=      5-min Rain = 0
KES1 181215Z 04002KT 08/01 A2979 RMK A01 T00780010  RH  062%=      5-min Rain = 0
KES1 181216Z 04002KT 08/01 A2979 RMK A01 T00780010  RH  062%=      5-min Rain = 0
KES1 181217Z 06003KT 08/01 A2979 RMK A01 T00780009  RH  062%=      5-min Rain = 0
KES1 181218Z 06003KT 08/01 A2979 RMK A01 T00800010  RH  061%=      5-min Rain = 0
KES1 181219Z 05003KT 08/01 A2979 RMK A01 T00810010  RH  061%=      5-min Rain = 0
KES1 181220Z 06003KT 08/01 A2979 RMK A01 T00810010  RH  061%=      5-min Rain = 0
KES1 181221Z 06003KT 08/01 A2979 RMK A01 T00810009  RH  061%=      5-min Rain = 0
KES1 181222Z 07004KT 08/01 A2979 RMK A01 T00810010  RH  061%=      5-min Rain = 0
KES1 181223Z 08004KT 08/01 A2979 RMK A01 T00790010  RH  062%=      5-min Rain = 0
KES1 181224Z 08004KT 08/01 A2979 RMK A01 T00770010  RH  063%=      5-min Rain = 0
KES1 181225Z 08005KT 08/01 A2979 RMK A01 T00750010  RH  063%=      5-min Rain = 0
KES1 181226Z 08004KT 07/01 A2979 RMK A01 T00740011  RH  064%=      5-min Rain = 0
KES1 181227Z 09004KT 07/01 A2979 RMK A01 T00740011  RH  064%=      5-min Rain = 0
KES1 181228Z 09004KT 08/01 A2978 RMK A01 T00750011  RH  064%=      5-min Rain = 0
KES1 181229Z 09003KT 08/01 A2978 RMK A01 T00760011  RH  063%=      5-min Rain = 0
KES1 181230Z 09003KT 08/01 A2978 RMK A01 T00770011  RH  063%=      5-min Rain = 0
KES1 181231Z 08002KT 08/01 A2978 RMK A01 T00790012  RH  063%=      5-min Rain = 0
KES1 181232Z 08002KT 08/01 A2978 RMK A01 T00790011  RH  062%=      5-min Rain = 0
KES1 181233Z 08002KT 08/01 A2978 RMK A01 T00790011  RH  062%=      5-min Rain = 0
KES1 181234Z 09002KT 08/01 A2978 RMK A01 T00790011  RH  062%=      5-min Rain = 0
KES1 181235Z 09002KT 08/01 A2978 RMK A01 T00790011  RH  062%=      5-min Rain = 0
KES1 181236Z 10002KT 08/01 A2978 RMK A01 T00800011  RH  062%=      5-min Rain = 0
KES1 181237Z 10003KT 08/01 A2978 RMK A01 T00820012  RH  061%=      5-min Rain = 0
KES1 181238Z 10003KT 08/01 A2978 RMK A01 T00830012  RH  061%=      5-min Rain = 0
KES1 181239Z 10002KT 08/01 A2978 RMK A01 T00840012  RH  061%=      5-min Rain = 0
KES1 181240Z 11002KT 08/01 A2978 RMK A01 T00840012  RH  060%=      5-min Rain = 0
KES1 181241Z 11002KT 08/01 A2978 RMK A01 T00840012  RH  060%=      5-min Rain = 0
KES1 181242Z 11001KT 08/01 A2978 RMK A01 T00840012  RH  061%=      5-min Rain = 0
KES1 181243Z 10001KT 08/01 A2978 RMK A01 T00830012  RH  061%=      5-min Rain = 0
KES1 181244Z 08001KT 08/01 A2978 RMK A01 T00840012  RH  061%=      5-min Rain = 0
KES1 181245Z 04001KT 08/01 A2978 RMK A01 T00840012  RH  060%=      5-min Rain = 0
KES1 181246Z 02002KT 09/01 A2978 RMK A01 T00850012  RH  060%=      5-min Rain = 0
KES1 181247Z 02002KT 09/01 A2978 RMK A01 T00850012  RH  060%=      5-min Rain = 0
KES1 181248Z 03002KT 09/01 A2979 RMK A01 T00850011  RH  060%=      5-min Rain = 0
KES1 181249Z 04002KT 09/01 A2979 RMK A01 T00850011  RH  060%=      5-min Rain = 0
KES1 181250Z 05003KT 09/01 A2979 RMK A01 T00850011  RH  060%=      5-min Rain = 0
KES1 181251Z 06003KT 08/01 A2978 RMK A01 T00840012  RH  060%=      5-min Rain = 0
KES1 181252Z 06003KT 08/01 A2978 RMK A01 T00810010  RH  061%=      5-min Rain = 0
KES1 181253Z 06003KT 08/01 A2978 RMK A01 T00760009  RH  062%=      5-min Rain = 0
KES1 181254Z 07004KT 07/01 A2978 RMK A01 T00740009  RH  064%=      5-min Rain = 0
KES1 181255Z 08004KT 07/01 A2978 RMK A01 T00730010  RH  064%=      5-min Rain = 0
KES1 181256Z 08005KT 07/01 A2978 RMK A01 T00720010  RH  065%=      5-min Rain = 0
KES1 181257Z 09005KT 07/01 A2978 RMK A01 T00720011  RH  065%=      5-min Rain = 0
KES1 181258Z 09005KT 07/01 A2978 RMK A01 T00740013  RH  065%=      5-min Rain = 0
KES1 181259Z 09005KT 08/02 A2978 RMK A01 T00790016  RH  064%=      5-min Rain = 0
KES1 181300Z 09005KT 08/02 A2978 RMK A01 T00830016  RH  063%=      5-min Rain = 0
KES1 181301Z 09005KT 09/02 A2978 RMK A01 T00850015  RH  062%=      5-min Rain = 0
KES1 181302Z 09005KT 09/02 A2978 RMK A01 T00870015  RH  061%=      5-min Rain = 0
KES1 181303Z 09004KT 09/02 A2978 RMK A01 T00890016  RH  060%=      5-min Rain = 0
KES1 181304Z 09004KT 09/02 A2978 RMK A01 T00900015  RH  059%=      5-min Rain = 0
KES1 181305Z 09004KT 09/02 A2978 RMK A01 T00910015  RH  059%=      5-min Rain = 0
KES1 181306Z 09004KT 09/02 A2978 RMK A01 T00920015  RH  059%=      5-min Rain = 0
KES1 181307Z 10004KT 09/02 A2978 RMK A01 T00930015  RH  058%=      5-min Rain = 0
KES1 181308Z 09004KT 09/02 A2978 RMK A01 T00940016  RH  058%=      5-min Rain = 0
KES1 181309Z 10004KT 09/02 A2978 RMK A01 T00940015  RH  058%=      5-min Rain = 0
KES1 181310Z 10004KT 09/02 A2978 RMK A01 T00940015  RH  058%=      5-min Rain = 0
KES1 181311Z 10005KT 09/02 A2978 RMK A01 T00930015  RH  058%=      5-min Rain = 0
KES1 181312Z 10005KT 09/02 A2978 RMK A01 T00920015  RH  059%=      5-min Rain = 0
KES1 181313Z 10005KT 09/02 A2978 RMK A01 T00920016  RH  059%=      5-min Rain = 0
KES1 181314Z 10005KT 09/02 A2978 RMK A01 T00920016  RH  059%=      5-min Rain = 0
KES1 181315Z 11004KT 09/02 A2978 RMK A01 T00930017  RH  059%=      5-min Rain = 0
KES1 181316Z 11004KT 10/02 A2978 RMK A01 T00950017  RH  058%=      5-min Rain = 0
KES1 181317Z 11003KT 10/02 A2978 RMK A01 T00960018  RH  058%=      5-min Rain = 0
KES1 181318Z 11004KT 10/02 A2978 RMK A01 T00980018  RH  058%=      5-min Rain = 0
KES1 181319Z 12004KT 10/02 A2978 RMK A01 T01000019  RH  057%=      5-min Rain = 0
KES1 181320Z 12004KT 10/02 A2978 RMK A01 T01010019  RH  057%=      5-min Rain = 0
KES1 181321Z 12003KT 10/02 A2978 RMK A01 T01030020  RH  056%=      5-min Rain = 0
KES1 181322Z 12003KT 10/02 A2978 RMK A01 T01040021  RH  056%=      5-min Rain = 0
KES1 181323Z 12004KT 11/02 A2978 RMK A01 T01060021  RH  056%=      5-min Rain = 0
KES1 181324Z 13003KT 11/02 A2978 RMK A01 T01070020  RH  055%=      5-min Rain = 0
KES1 181325Z 12003KT 11/02 A2978 RMK A01 T01090021  RH  054%=      5-min Rain = 0
KES1 181326Z 12003KT 11/02 A2978 RMK A01 T01100021  RH  054%=      5-min Rain = 0
KES1 181327Z 11003KT 11/02 A2978 RMK A01 T01120021  RH  054%=      5-min Rain = 0
KES1 181328Z 11004KT 11/02 A2978 RMK A01 T01130020  RH  053%=      5-min Rain = 0
KES1 181329Z 10003KT 11/02 A2978 RMK A01 T01140019  RH  052%=      5-min Rain = 0
KES1 181330Z 10004KT 11/02 A2978 RMK A01 T01140020  RH  052%=      5-min Rain = 0
KES1 181331Z 09003KT 12/02 A2978 RMK A01 T01150020  RH  052%=      5-min Rain = 0
KES1 181332Z 10004KT 12/02 A2978 RMK A01 T01160022  RH  052%=      5-min Rain = 0
KES1 181333Z 10004KT 12/02 A2978 RMK A01 T01170022  RH  052%=      5-min Rain = 0
KES1 181334Z 12004KT 12/02 A2978 RMK A01 T01180021  RH  051%=      5-min Rain = 0
KES1 181335Z 11005KT 12/02 A2978 RMK A01 T01180021  RH  051%=      5-min Rain = 0
KES1 181336Z 12006KT 12/02 A2978 RMK A01 T01190022  RH  051%=      5-min Rain = 0
KES1 181337Z 12006KT 12/02 A2978 RMK A01 T01190021  RH  051%=      5-min Rain = 0
KES1 181338Z 11006KT 12/02 A2978 RMK A01 T01200022  RH  051%=      5-min Rain = 0
KES1 181339Z 13005KT 12/02 A2978 RMK A01 T01210022  RH  051%=      5-min Rain = 0
KES1 181340Z 13006KT 12/02 A2978 RMK A01 T01210023  RH  051%=      5-min Rain = 0
KES1 181341Z 12007KT 12/02 A2978 RMK A01 T01210023  RH  051%=      5-min Rain = 0
KES1 181342Z 12008KT 12/02 A2978 RMK A01 T01210022  RH  051%=      5-min Rain = 0
KES1 181343Z 12007KT 12/02 A2978 RMK A01 T01220022  RH  051%=      5-min Rain = 0
KES1 181344Z 12008KT 12/02 A2978 RMK A01 T01210023  RH  051%=      5-min Rain = 0
KES1 181345Z 12007KT 12/02 A2978 RMK A01 T01220022  RH  051%=      5-min Rain = 0
KES1 181346Z 12007KT 12/02 A2978 RMK A01 T01220023  RH  051%=      5-min Rain = 0
KES1 181347Z 13006KT 12/02 A2978 RMK A01 T01220023  RH  051%=      5-min Rain = 0
KES1 181348Z 13008KT 12/02 A2978 RMK A01 T01230024  RH  051%=      5-min Rain = 0
KES1 181349Z 12007KT 12/02 A2978 RMK A01 T01240024  RH  051%=      5-min Rain = 0
KES1 181350Z 12006KT 12/03 A2978 RMK A01 T01240025  RH  051%=      5-min Rain = 0
KES1 181351Z 13007KT 13/03 A2978 RMK A01 T01250026  RH  051%=      5-min Rain = 0
KES1 181352Z 14006KT 13/03 A2977 RMK A01 T01260026  RH  050%=      5-min Rain = 0
KES1 181353Z 13007KT 13/03 A2977 RMK A01 T01270027  RH  050%=      5-min Rain = 0
KES1 181354Z 13007KT 13/03 A2977 RMK A01 T01290027  RH  050%=      5-min Rain = 0
KES1 181355Z 13008KT 13/03 A2977 RMK A01 T01300026  RH  049%=      5-min Rain = 0
KES1 181356Z 13008KT 13/03 A2977 RMK A01 T01310027  RH  049%=      5-min Rain = 0
KES1 181357Z 13010KT 13/03 A2977 RMK A01 T01310026  RH  049%=      5-min Rain = 0
KES1 181358Z 13009KT 13/03 A2977 RMK A01 T01320026  RH  049%=      5-min Rain = 0
KES1 181359Z 13009KT 13/03 A2977 RMK A01 T01320026  RH  049%=      5-min Rain = 0
KES1 181400Z 13008KT 13/03 A2977 RMK A01 T01340027  RH  048%=      5-min Rain = 0
KES1 181401Z 13010KT 14/03 A2977 RMK A01 T01350027  RH  048%=      5-min Rain = 0
KES1 181402Z 13007KT 14/03 A2977 RMK A01 T01360027  RH  048%=      5-min Rain = 0
KES1 181403Z 13009KT 14/03 A2977 RMK A01 T01370029  RH  048%=      5-min Rain = 0
KES1 181404Z 13009KT 14/03 A2977 RMK A01 T01390028  RH  047%=      5-min Rain = 0
KES1 181405Z 13009KT 14/03 A2977 RMK A01 T01400028  RH  047%=      5-min Rain = 0
KES1 181406Z 14009KT 14/03 A2977 RMK A01 T01400028  RH  047%=      5-min Rain = 0
KES1 181407Z 14008KT 14/03 A2977 RMK A01 T01410029  RH  047%=      5-min Rain = 0
KES1 181408Z 13008KT 14/03 A2977 RMK A01 T01420029  RH  046%=      5-min Rain = 0
KES1 181409Z 14007KT 14/03 A2978 RMK A01 T01420029  RH  046%=      5-min Rain = 0
KES1 181410Z 14009KT 14/03 A2978 RMK A01 T01440030  RH  046%=      5-min Rain = 0
KES1 181411Z 13008KT 14/03 A2978 RMK A01 T01440030  RH  046%=      5-min Rain = 0
KES1 181412Z 14007KT 15/03 A2978 RMK A01 T01450031  RH  046%=      5-min Rain = 0
KES1 181413Z 14006KT 15/03 A2978 RMK A01 T01470033  RH  046%=      5-min Rain = 0
KES1 181414Z 15007KT 15/03 A2978 RMK A01 T01480034  RH  046%=      5-min Rain = 0
KES1 181415Z 13007KT 15/03 A2978 RMK A01 T01500034  RH  046%=      5-min Rain = 0
KES1 181416Z 15007KT 15/03 A2978 RMK A01 T01500034  RH  046%=      5-min Rain = 0
KES1 181417Z 14006KT 15/03 A2978 RMK A01 T01500034  RH  046%=      5-min Rain = 0
KES1 181418Z 15008KT 15/04 A2978 RMK A01 T01510035  RH  046%=      5-min Rain = 0
KES1 181419Z 14007KT 15/04 A2978 RMK A01 T01530037  RH  046%=      5-min Rain = 0
KES1 181420Z 14007KT 16/04 A2978 RMK A01 T01550038  RH  046%=      5-min Rain = 0
KES1 181421Z 14008KT 16/04 A2977 RMK A01 T01550036  RH  045%=      5-min Rain = 0
KES1 181422Z 15007KT 16/04 A2977 RMK A01 T01550038  RH  046%=      5-min Rain = 0
KES1 181423Z 15009KT 16/04 A2977 RMK A01 T01560038  RH  045%=      5-min Rain = 0
KES1 181424Z 15009KT 16/04 A2977 RMK A01 T01560037  RH  045%=      5-min Rain = 0
KES1 181425Z 14010KT 16/04 A2977 RMK A01 T01570038  RH  045%=      5-min Rain = 0
KES1 181426Z 14008KT 16/04 A2977 RMK A01 T01570039  RH  045%=      5-min Rain = 0
KES1 181427Z 14008KT 16/04 A2977 RMK A01 T01580040  RH  045%=      5-min Rain = 0
KES1 181428Z 14008KT 16/04 A2977 RMK A01 T01590040  RH  045%=      5-min Rain = 0
KES1 181429Z 14009KT 16/04 A2977 RMK A01 T01590040  RH  045%=      5-min Rain = 0
KES1 181430Z 14009KT 16/04 A2978 RMK A01 T01590040  RH  045%=      5-min Rain = 0
KES1 181431Z 13008KT 16/04 A2977 RMK A01 T01590040  RH  045%=      5-min Rain = 0
KES1 181432Z 14008KT 16/04 A2977 RMK A01 T01600042  RH  045%=      5-min Rain = 0
KES1 181433Z 15008KT 16/04 A2978 RMK A01 T01610043  RH  045%=      5-min Rain = 0
KES1 181434Z 15009KT 16/05 A2978 RMK A01 T01630046  RH  046%=      5-min Rain = 0
KES1 181435Z 15006KT 16/05 A2978 RMK A01 T01640047  RH  046%=      5-min Rain = 0
KES1 181436Z 15005KT 17/05 A2978 RMK A01 T01660050  RH  046%=      5-min Rain = 0
KES1 181437Z 15007KT 17/05 A2978 RMK A01 T01680050  RH  045%=      5-min Rain = 0
KES1 181438Z 15006KT 17/05 A2978 RMK A01 T01700049  RH  045%=      5-min Rain = 0
KES1 181439Z 14008KT 17/05 A2978 RMK A01 T01700048  RH  044%=      5-min Rain = 0
KES1 181440Z 14008KT 17/05 A2978 RMK A01 T01710049  RH  045%=      5-min Rain = 0
KES1 181441Z 14008KT 17/05 A2978 RMK A01 T01700050  RH  045%=      5-min Rain = 0
KES1 181442Z 14007KT 17/05 A2978 RMK A01 T01700052  RH  045%=      5-min Rain = 0
KES1 181443Z 14009KT 17/05 A2977 RMK A01 T01730052  RH  045%=      5-min Rain = 0
KES1 181444Z 15009KT 17/05 A2977 RMK A01 T01730052  RH  045%=      5-min Rain = 0
KES1 181445Z 15008KT 17/05 A2977 RMK A01 T01720053  RH  046%=      5-min Rain = 0
KES1 181446Z 16008KT 17/05 A2977 RMK A01 T01720054  RH  046%=      5-min Rain = 0
KES1 181447Z 14009KT 17/05 A2977 RMK A01 T01730053  RH  045%=      5-min Rain = 0
KES1 181448Z 15009KT 17/05 A2977 RMK A01 T01730053  RH  045%=      5-min Rain = 0
KES1 181449Z 15009KT 17/06 A2977 RMK A01 T01730055  RH  046%=      5-min Rain = 0
KES1 181450Z 16008KT 17/06 A2977 RMK A01 T01740057  RH  046%=      5-min Rain = 0
KES1 181451Z 14007KT 18/06 A2977 RMK A01 T01750059  RH  046%=      5-min Rain = 0
KES1 181452Z 15009KT 18/06 A2977 RMK A01 T01760058  RH  046%=      5-min Rain = 0
KES1 181453Z 15009KT 18/06 A2977 RMK A01 T01760059  RH  046%=      5-min Rain = 0
KES1 181454Z 16008KT 18/06 A2977 RMK A01 T01760061  RH  047%=      5-min Rain = 0
KES1 181455Z 16008KT 18/06 A2977 RMK A01 T01760062  RH  047%=      5-min Rain = 0
KES1 181456Z 15009KT 18/06 A2977 RMK A01 T01770061  RH  046%=      5-min Rain = 0
KES1 181457Z 15010KT 18/06 A2977 RMK A01 T01780059  RH  046%=      5-min Rain = 0
KES1 181458Z 16009KT 18/06 A2977 RMK A01 T01770058  RH  045%=      5-min Rain = 0
KES1 181459Z 16008KT 18/06 A2977 RMK A01 T01760058  RH  046%=      5-min Rain = 0
KES1 181500Z 15009KT 18/06 A2977 RMK A01 T01760058  RH  046%=      5-min Rain = 0
KES1 181501Z 14009KT 18/06 A2977 RMK A01 T01770059  RH  046%=      5-min Rain = 0
KES1 181502Z 15009KT 18/06 A2977 RMK A01 T01780059  RH  046%=      5-min Rain = 0
KES1 181503Z 15010KT 18/06 A2977 RMK A01 T01780061  RH  046%=      5-min Rain = 0
KES1 181504Z 15010KT 18/06 A2977 RMK A01 T01800061  RH  046%=      5-min Rain = 0
KES1 181505Z 15010KT 18/06 A2976 RMK A01 T01800062  RH  046%=      5-min Rain = 0
KES1 181506Z 16008KT 18/06 A2976 RMK A01 T01800061  RH  046%=      5-min Rain = 0
KES1 181507Z 18009KT 18/07 A2976 RMK A01 T01800065  RH  047%=      5-min Rain = 0
KES1 181508Z 17011KT 18/07 A2976 RMK A01 T01810066  RH  047%=      5-min Rain = 0
KES1 181509Z 14010KT 18/07 A2976 RMK A01 T01810065  RH  047%=      5-min Rain = 0
KES1 181510Z 15009KT 18/06 A2976 RMK A01 T01810064  RH  046%=      5-min Rain = 0
KES1 181511Z 16011KT 18/06 A2976 RMK A01 T01820064  RH  046%=      5-min Rain = 0
KES1 181512Z 16009KT 18/07 A2976 RMK A01 T01810065  RH  046%=      5-min Rain = 0
KES1 181513Z 16010KT 18/07 A2976 RMK A01 T01800066  RH  047%=      5-min Rain = 0
KES1 181514Z 17008KT 18/07 A2976 RMK A01 T01810067  RH  047%=      5-min Rain = 0
KES1 181515Z 15008KT 18/07 A2976 RMK A01 T01820066  RH  047%=      5-min Rain = 0
KES1 181516Z 15009KT 18/07 A2977 RMK A01 T01840066  RH  046%=      5-min Rain = 0
KES1 181517Z 16008KT 18/07 A2977 RMK A01 T01840065  RH  046%=      5-min Rain = 0
KES1 181518Z 17008KT 18/07 A2977 RMK A01 T01840065  RH  046%=      5-min Rain = 0
KES1 181519Z 17008KT 18/07 A2977 RMK A01 T01840065  RH  046%=      5-min Rain = 0
KES1 181520Z 16009KT 19/07 A2976 RMK A01 T01850066  RH  046%=      5-min Rain = 0
KES1 181521Z 16007KT 19/07 A2976 RMK A01 T01850066  RH  046%=      5-min Rain = 0
KES1 181522Z 16007KT 19/07 A2976 RMK A01 T01860068  RH  046%=      5-min Rain = 0
KES1 181523Z 17008KT 19/07 A2976 RMK A01 T01870069  RH  046%=      5-min Rain = 0
KES1 181524Z 17008KT 19/07 A2977 RMK A01 T01890069  RH  046%=      5-min Rain = 0
KES1 181525Z 16006KT 19/07 A2977 RMK A01 T01900071  RH  046%=      5-min Rain = 0
KES1 181526Z 16008KT 19/07 A2977 RMK A01 T01910071  RH  046%=      5-min Rain = 0
KES1 181527Z 15009KT 19/07 A2977 RMK A01 T01920070  RH  045%=      5-min Rain = 0
KES1 181528Z 17011KT 19/07 A2977 RMK A01 T01910073  RH  046%=      5-min Rain = 0
KES1 181529Z 18008KT 19/07 A2977 RMK A01 T01900073  RH  047%=      5-min Rain = 0
KES1 181530Z 19007KT 19/07 A2977 RMK A01 T01890074  RH  047%=      5-min Rain = 0
KES1 181531Z 18006KT 19/08 A2977 RMK A01 T01900075  RH  047%=      5-min Rain = 0
KES1 181532Z 17006KT 19/08 A2977 RMK A01 T01910075  RH  047%=      5-min Rain = 0
KES1 181533Z 16009KT 19/08 A2976 RMK A01 T01910076  RH  047%=      5-min Rain = 0
KES1 181534Z 17008KT 19/08 A2977 RMK A01 T01930077  RH  047%=      5-min Rain = 0
KES1 181535Z 17008KT 19/08 A2977 RMK A01 T01940077  RH  047%=      5-min Rain = 0
KES1 181536Z 16006KT 19/08 A2976 RMK A01 T01930077  RH  047%=      5-min Rain = 0
KES1 181537Z 16008KT 19/08 A2976 RMK A01 T01930078  RH  047%=      5-min Rain = 0
KES1 181538Z 16007KT 19/08 A2976 RMK A01 T01940077  RH  047%=      5-min Rain = 0
KES1 181539Z 18008KT 19/08 A2976 RMK A01 T01940078  RH  047%=      5-min Rain = 0
KES1 181540Z 18007KT 20/08 A2976 RMK A01 T01950077  RH  047%=      5-min Rain = 0
KES1 181541Z 18010KT 19/08 A2976 RMK A01 T01940077  RH  047%=      5-min Rain = 0
KES1 181542Z 18006KT 19/08 A2976 RMK A01 T01930077  RH  047%=      5-min Rain = 0
KES1 181543Z 17006KT 19/08 A2976 RMK A01 T01930078  RH  047%=      5-min Rain = 0
KES1 181544Z 17007KT 20/08 A2976 RMK A01 T01960079  RH  047%=      5-min Rain = 0
KES1 181545Z 18006KT 20/08 A2976 RMK A01 T01960078  RH  046%=      5-min Rain = 0
KES1 181546Z 17003KT 20/08 A2976 RMK A01 T01970079  RH  046%=      5-min Rain = 0
KES1 181547Z 16007KT 20/08 A2976 RMK A01 T01980081  RH  047%=      5-min Rain = 0
KES1 181548Z 17008KT 20/08 A2976 RMK A01 T02000079  RH  046%=      5-min Rain = 0
KES1 181549Z 17008KT 20/08 A2976 RMK A01 T02000079  RH  046%=      5-min Rain = 0
KES1 181550Z 18007KT 20/08 A2976 RMK A01 T01990078  RH  046%=      5-min Rain = 0
KES1 181551Z 15007KT 20/08 A2976 RMK A01 T01980078  RH  046%=      5-min Rain = 0
KES1 181552Z 16009KT 20/08 A2976 RMK A01 T01990080  RH  046%=      5-min Rain = 0
KES1 181553Z 17008KT 20/08 A2975 RMK A01 T02010080  RH  046%=      5-min Rain = 0
KES1 181554Z 17008KT 20/08 A2975 RMK A01 T02010080  RH  045%=      5-min Rain = 0
KES1 181555Z 16008KT 20/08 A2975 RMK A01 T02010079  RH  045%=      5-min Rain = 0
KES1 181556Z 16008KT 20/08 A2975 RMK A01 T02000079  RH  045%=      5-min Rain = 0
KES1 181557Z 15007KT 20/08 A2975 RMK A01 T02010079  RH  045%=      5-min Rain = 0
KES1 181558Z 15011KT 20/08 A2975 RMK A01 T02010080  RH  046%=      5-min Rain = 0
KES1 181559Z 16009KT 20/08 A2975 RMK A01 T02020080  RH  045%=      5-min Rain = 0
KES1 181600Z 17005KT 20/08 A2975 RMK A01 T02020081  RH  046%=      5-min Rain = 0
KES1 181601Z 18008KT 20/08 A2975 RMK A01 T02040082  RH  045%=      5-min Rain = 0
KES1 181602Z 18007KT 20/08 A2975 RMK A01 T02040081  RH  045%=      5-min Rain = 0
KES1 181603Z 18006KT 20/08 A2975 RMK A01 T02040082  RH  045%=      5-min Rain = 0
KES1 181604Z 16007KT 21/08 A2975 RMK A01 T02050083  RH  045%=      5-min Rain = 0
KES1 181605Z 16007KT 21/08 A2974 RMK A01 T02060083  RH  045%=      5-min Rain = 0
KES1 181606Z 16007KT 21/08 A2974 RMK A01 T02080084  RH  045%=      5-min Rain = 0
KES1 181607Z 17007KT 21/08 A2974 RMK A01 T02110084  RH  044%=      5-min Rain = 0
KES1 181608Z 19008KT 21/09 A2974 RMK A01 T02120086  RH  044%=      5-min Rain = 0
KES1 181609Z 18008KT 21/09 A2974 RMK A01 T02120087  RH  045%=      5-min Rain = 0
KES1 181610Z 17006KT 21/09 A2974 RMK A01 T02120088  RH  045%=      5-min Rain = 0
KES1 181611Z 18008KT 21/09 A2974 RMK A01 T02130088  RH  045%=      5-min Rain = 0
KES1 181612Z 16007KT 21/09 A2974 RMK A01 T02130087  RH  044%=      5-min Rain = 0
KES1 181613Z 16009KT 21/09 A2974 RMK A01 T02120087  RH  044%=      5-min Rain = 0
KES1 181614Z 18008KT 21/09 A2974 RMK A01 T02120088  RH  045%=      5-min Rain = 0
KES1 181615Z 19010KT 21/09 A2974 RMK A01 T02120087  RH  045%=      5-min Rain = 0
KES1 181616Z 17006KT 21/09 A2974 RMK A01 T02110086  RH  045%=      5-min Rain = 0
KES1 181617Z 16006KT 21/09 A2974 RMK A01 T02100089  RH  046%=      5-min Rain = 0
KES1 181618Z 17006KT 21/09 A2974 RMK A01 T02130090  RH  045%=      5-min Rain = 0
KES1 181619Z 18007KT 22/09 A2974 RMK A01 T02150089  RH  045%=      5-min Rain = 0
KES1 181620Z 18005KT 22/09 A2974 RMK A01 T02150090  RH  045%=      5-min Rain = 0
KES1 181621Z 18008KT 22/09 A2974 RMK A01 T02160092  RH  045%=      5-min Rain = 0
KES1 181622Z 18011KT 22/09 A2974 RMK A01 T02190090  RH  044%=      5-min Rain = 0
KES1 181623Z 18009KT 22/09 A2974 RMK A01 T02180090  RH  044%=      5-min Rain = 0
KES1 181624Z 16007KT 22/09 A2974 RMK A01 T02170091  RH  044%=      5-min Rain = 0
KES1 181625Z 16008KT 22/09 A2974 RMK A01 T02190091  RH  044%=      5-min Rain = 0
KES1 181626Z 17007KT 22/09 A2974 RMK A01 T02190091  RH  044%=      5-min Rain = 0
KES1 181627Z 16008KT 22/09 A2974 RMK A01 T02200091  RH  044%=      5-min Rain = 0
KES1 181628Z 15006KT 22/09 A2974 RMK A01 T02200090  RH  044%=      5-min Rain = 0
KES1 181629Z 14007KT 22/09 A2974 RMK A01 T02210093  RH  044%=      5-min Rain = 0
KES1 181630Z 14006KT 22/09 A2974 RMK A01 T02230091  RH  043%=      5-min Rain = 0
KES1 181631Z 16008KT 22/09 A2974 RMK A01 T02230092  RH  043%=      5-min Rain = 0
KES1 181632Z 16007KT 22/09 A2974 RMK A01 T02230093  RH  043%=      5-min Rain = 0
KES1 181633Z 16005KT 22/09 A2974 RMK A01 T02240094  RH  044%=      5-min Rain = 0
KES1 181634Z 18007KT 23/10 A2974 RMK A01 T02260098  RH  044%=      5-min Rain = 0
KES1 181635Z 17007G12KT 23/10 A2974 RMK A01 T02280097  RH  043%=      5-min Rain = 0
KES1 181636Z 15010KT 23/10 A2974 RMK A01 T02280097  RH  043%=      5-min Rain = 0
KES1 181637Z 17008KT 23/10 A2974 RMK A01 T02290098  RH  043%=      5-min Rain = 0
KES1 181638Z 18009KT 23/10 A2974 RMK A01 T02310098  RH  043%=      5-min Rain = 0
KES1 181639Z 18009KT 23/10 A2974 RMK A01 T02300098  RH  043%=      5-min Rain = 0
KES1 181640Z 16011KT 23/10 A2974 RMK A01 T02300100  RH  043%=      5-min Rain = 0
KES1 181641Z 15010KT 23/10 A2974 RMK A01 T02310098  RH  043%=      5-min Rain = 0
KES1 181642Z 16010KT 23/10 A2974 RMK A01 T02320100  RH  043%=      5-min Rain = 0
KES1 181643Z 16011KT 23/10 A2973 RMK A01 T02340099  RH  042%=      5-min Rain = 0
KES1 181644Z 16011KT 23/10 A2973 RMK A01 T02330097  RH  042%=      5-min Rain = 0
KES1 181645Z 17008KT 23/10 A2973 RMK A01 T02310098  RH  043%=      5-min Rain = 0
KES1 181646Z 15008KT 23/10 A2973 RMK A01 T02300098  RH  043%=      5-min Rain = 0
KES1 181647Z 15009KT 23/10 A2973 RMK A01 T02310098  RH  043%=      5-min Rain = 0
KES1 181648Z 14008KT 23/10 A2973 RMK A01 T02310099  RH  043%=      5-min Rain = 0
KES1 181649Z 16009KT 23/10 A2973 RMK A01 T02340100  RH  043%=      5-min Rain = 0
KES1 181650Z 15012KT 24/10 A2973 RMK A01 T02350100  RH  042%=      5-min Rain = 0
KES1 181651Z 15012KT 24/10 A2973 RMK A01 T02360100  RH  042%=      5-min Rain = 0
KES1 181652Z 16011KT 24/10 A2973 RMK A01 T02360100  RH  042%=      5-min Rain = 0
KES1 181653Z 15009KT 23/10 A2973 RMK A01 T02340099  RH  043%=      5-min Rain = 0
KES1 181654Z 17011KT 23/10 A2973 RMK A01 T02310098  RH  043%=      5-min Rain = 0
KES1 181655Z 18009KT 23/10 A2973 RMK A01 T02310100  RH  043%=      5-min Rain = 0
KES1 181656Z 16009G14KT 23/10 A2973 RMK A01 T02340102  RH  043%=      5-min Rain = 0
KES1 181657Z 16013KT 24/10 A2973 RMK A01 T02360100  RH  042%=      5-min Rain = 0
KES1 181658Z 15011G16KT 23/10 A2973 RMK A01 T02330099  RH  043%=      5-min Rain = 0
KES1 181659Z 15010KT 23/10 A2973 RMK A01 T02310100  RH  043%=      5-min Rain = 0
KES1 181700Z 17009KT 23/10 A2973 RMK A01 T02330101  RH  043%=      5-min Rain = 0
KES1 181701Z 17011KT 24/10 A2972 RMK A01 T02350100  RH  042%=      5-min Rain = 0
KES1 181702Z 14010KT 24/10 A2972 RMK A01 T02360101  RH  043%=      5-min Rain = 0
KES1 181703Z 15012KT 24/10 A2972 RMK A01 T02360101  RH  042%=      5-min Rain = 0
KES1 181704Z 14011KT 24/10 A2972 RMK A01 T02370102  RH  042%=      5-min Rain = 0
KES1 181705Z 15008KT 24/10 A2972 RMK A01 T02400103  RH  042%=      5-min Rain = 0
KES1 181706Z 16006KT 24/11 A2972 RMK A01 T02430106  RH  042%=      5-min Rain = 0
KES1 181707Z 14012KT 25/11 A2972 RMK A01 T02490107  RH  041%=      5-min Rain = 0
KES1 181708Z 15014KT 25/10 A2972 RMK A01 T02490104  RH  040%=      5-min Rain = 0
KES1 181709Z 16010KT 25/11 A2972 RMK A01 T02470105  RH  041%=      5-min Rain = 0
KES1 181710Z 15008KT 25/11 A2972 RMK A01 T02480108  RH  041%=      5-min Rain = 0
KES1 181711Z 14011KT 25/11 A2972 RMK A01 T02520109  RH  041%=      5-min Rain = 0
KES1 181712Z 15013KT 25/11 A2971 RMK A01 T02540107  RH  040%=      5-min Rain = 0
KES1 181713Z 16013KT 25/11 A2971 RMK A01 T02540106  RH  040%=      5-min Rain = 0
KES1 181714Z 17010KT 25/11 A2971 RMK A01 T02520106  RH  040%=      5-min Rain = 0
KES1 181715Z 17011KT 25/11 A2971 RMK A01 T02510107  RH  040%=      5-min Rain = 0
KES1 181716Z 15013KT 25/11 A2971 RMK A01 T02510106  RH  040%=      5-min Rain = 0
KES1 181717Z 16012KT 25/11 A2971 RMK A01 T02520107  RH  040%=      5-min Rain = 0
KES1 181718Z 16008KT 25/11 A2971 RMK A01 T02520106  RH  040%=      5-min Rain = 0
KES1 181719Z 17006KT 25/11 A2971 RMK A01 T02520108  RH  040%=      5-min Rain = 0
KES1 181720Z 17009KT 26/11 A2971 RMK A01 T02550109  RH  040%=      5-min Rain = 0
KES1 181721Z 14009KT 26/11 A2971 RMK A01 T02560109  RH  040%=      5-min Rain = 0
KES1 181722Z 14011KT 26/11 A2971 RMK A01 T02560109  RH  040%=      5-min Rain = 0
KES1 181723Z 16007G14KT 26/11 A2971 RMK A01 T02590111  RH  040%=      5-min Rain = 0
KES1 181724Z 15012KT 26/11 A2971 RMK A01 T02620110  RH  039%=      5-min Rain = 0
KES1 181725Z 15011KT 26/11 A2971 RMK A01 T02600110  RH  039%=      5-min Rain = 0
KES1 181726Z 16012KT 26/11 A2971 RMK A01 T02600109  RH  039%=      5-min Rain = 0
KES1 181727Z 15010G15KT 26/11 A2971 RMK A01 T02590110  RH  039%=      5-min Rain = 0
KES1 181728Z 16010KT 26/11 A2971 RMK A01 T02610113  RH  040%=      5-min Rain = 0
KES1 181729Z 16009KT 26/11 A2971 RMK A01 T02630110  RH  038%=      5-min Rain = 0
KES1 181730Z 15008KT 26/11 A2971 RMK A01 T02630111  RH  039%=      5-min Rain = 0
KES1 181731Z 17011G17KT 26/11 A2971 RMK A01 T02640113  RH  039%=      5-min Rain = 0
KES1 181732Z 17012KT 27/11 A297 RMK A01 T02660112  RH  038%=      5-min Rain = 0
KES1 181733Z 17013KT 27/11 A297 RMK A01 T02660111  RH  038%=      5-min Rain = 0
KES1 181734Z 18012KT 26/11 A297 RMK A01 T02640111  RH  038%=      5-min Rain = 0
KES1 181735Z 18012KT 26/11 A297 RMK A01 T02630110  RH  038%=      5-min Rain = 0
KES1 181736Z 16011KT 26/11 A297 RMK A01 T02620110  RH  039%=      5-min Rain = 0
KES1 181737Z 15014KT 26/11 A297 RMK A01 T02610110  RH  039%=      5-min Rain = 0
KES1 181738Z 16012KT 26/11 A297 RMK A01 T02640113  RH  039%=      5-min Rain = 0
KES1 181739Z 15010KT 27/11 A297 RMK A01 T02670112  RH  038%=      5-min Rain = 0
KES1 181740Z 18011G16KT 27/11 A297 RMK A01 T02690113  RH  038%=      5-min Rain = 0
KES1 181741Z 17009KT 27/11 A297 RMK A01 T02700112  RH  037%=      5-min Rain = 0
KES1 181742Z 15013KT 27/11 A297 RMK A01 T02690112  RH  037%=      5-min Rain = 0
KES1 181743Z 16013KT 27/11 A2969 RMK A01 T02690111  RH  037%=      5-min Rain = 0
KES1 181744Z 16014KT 27/11 A2969 RMK A01 T02680110  RH  037%=      5-min Rain = 0
KES1 181745Z 15012KT 27/11 A2969 RMK A01 T02660110  RH  038%=      5-min Rain = 0
KES1 181746Z 15013KT 27/11 A2969 RMK A01 T02650110  RH  038%=      5-min Rain = 0
KES1 181747Z 14013KT 27/11 A2969 RMK A01 T02660110  RH  038%=      5-min Rain = 0
KES1 181748Z 14013KT 27/11 A2969 RMK A01 T02660109  RH  038%=      5-min Rain = 0
KES1 181749Z 13012KT 27/11 A2969 RMK A01 T02660110  RH  038%=      5-min Rain = 0
KES1 181750Z 16010KT 27/11 A2969 RMK A01 T02660111  RH  038%=      5-min Rain = 0
KES1 181751Z 15009KT 27/11 A2969 RMK A01 T02690113  RH  038%=      5-min Rain = 0
KES1 181752Z 15011KT 27/11 A2969 RMK A01 T02720112  RH  037%=      5-min Rain = 0
KES1 181753Z 13013KT 27/11 A2969 RMK A01 T02730112  RH  037%=      5-min Rain = 0
KES1 181754Z 15014KT 27/11 A2968 RMK A01 T02720110  RH  036%=      5-min Rain = 0
KES1 181755Z 15014KT 27/11 A2968 RMK A01 T02700109  RH  037%=      5-min Rain = 0
KES1 181756Z 16012KT 27/11 A2968 RMK A01 T02700111  RH  037%=      5-min Rain = 0
KES1 181757Z 17013KT 27/11 A2968 RMK A01 T02710110  RH  037%=      5-min Rain = 0
KES1 181758Z 16014KT 27/11 A2968 RMK A01 T02730111  RH  036%=      5-min Rain = 0
KES1 181759Z 16014KT 27/11 A2968 RMK A01 T02720109  RH  036%=      5-min Rain = 0
KES1 181800Z 17012KT 27/11 A2968 RMK A01 T02690109  RH  037%=      5-min Rain = 0
KES1 181801Z 17013KT 27/11 A2968 RMK A01 T02690110  RH  037%=      5-min Rain = 0
KES1 181802Z 17011KT 27/11 A2968 RMK A01 T02710111  RH  037%=      5-min Rain = 0
KES1 181803Z 18016KT 27/11 A2968 RMK A01 T02730110  RH  036%=      5-min Rain = 0
KES1 181804Z 18012G17KT 27/11 A2968 RMK A01 T02720110  RH  036%=      5-min Rain = 0
KES1 181805Z 18012G17KT 27/11 A2968 RMK A01 T02720111  RH  037%=      5-min Rain = 0
KES1 181806Z 17014KT 27/11 A2968 RMK A01 T02730109  RH  036%=      5-min Rain = 0
KES1 181807Z 15011KT 27/11 A2968 RMK A01 T02720111  RH  037%=      5-min Rain = 0
KES1 181808Z 15011G16KT 27/11 A2968 RMK A01 T02730111  RH  036%=      5-min Rain = 0
KES1 181809Z 19011KT 28/11 A2968 RMK A01 T02750111  RH  036%=      5-min Rain = 0
KES1 181810Z 18013G18KT 28/11 A2968 RMK A01 T02760110  RH  035%=      5-min Rain = 0
KES1 181811Z 17013G18KT 27/11 A2968 RMK A01 T02740109  RH  036%=      5-min Rain = 0
KES1 181812Z 16009KT 27/11 A2968 RMK A01 T02740111  RH  036%=      5-min Rain = 0
KES1 181813Z 16013G19KT 28/11 A2968 RMK A01 T02780114  RH  036%=      5-min Rain = 0
KES1 181814Z 16014KT 28/11 A2968 RMK A01 T02790110  RH  035%=      5-min Rain = 0
KES1 181815Z 16019KT 28/11 A2967 RMK A01 T02760108  RH  035%=      5-min Rain = 0
KES1 181816Z 16017KT 27/11 A2968 RMK A01 T02730108  RH  036%=      5-min Rain = 0
KES1 181817Z 16014G19KT 27/11 A2967 RMK A01 T02700107  RH  036%=      5-min Rain = 0
KES1 181818Z 17012KT 27/11 A2967 RMK A01 T02700110  RH  037%=      5-min Rain = 0
KES1 181819Z 16011KT 27/11 A2967 RMK A01 T02740112  RH  036%=      5-min Rain = 0
KES1 181820Z 18015KT 28/11 A2967 RMK A01 T02780111  RH  035%=      5-min Rain = 0
KES1 181821Z 18014KT 28/11 A2967 RMK A01 T02750109  RH  035%=      5-min Rain = 0
KES1 181822Z 16013KT 27/11 A2967 RMK A01 T02740111  RH  036%=      5-min Rain = 0
KES1 181823Z 16014G20KT 28/11 A2967 RMK A01 T02760110  RH  036%=      5-min Rain = 0
KES1 181824Z 16017G22KT 28/11 A2967 RMK A01 T02770110  RH  035%=      5-min Rain = 0
KES1 181825Z 16015KT 27/11 A2967 RMK A01 T02740109  RH  036%=      5-min Rain = 0
KES1 181826Z 16012KT 27/11 A2967 RMK A01 T02740110  RH  036%=      5-min Rain = 0
KES1 181827Z 17014KT 27/11 A2967 RMK A01 T02730109  RH  036%=      5-min Rain = 0
KES1 181828Z 18017KT 27/11 A2966 RMK A01 T02720109  RH  036%=      5-min Rain = 0
KES1 181829Z 17018KT 27/11 A2967 RMK A01 T02730109  RH  036%=      5-min Rain = 0
KES1 181830Z 17014KT 27/11 A2967 RMK A01 T02700108  RH  036%=      5-min Rain = 0
KES1 181831Z 16011KT 27/11 A2966 RMK A01 T02710110  RH  037%=      5-min Rain = 0
KES1 181832Z 16018KT 28/11 A2966 RMK A01 T02750111  RH  036%=      5-min Rain = 0
KES1 181833Z 16015KT 27/11 A2966 RMK A01 T02740108  RH  036%=      5-min Rain = 0
KES1 181834Z 18011KT 27/11 A2966 RMK A01 T02720110  RH  036%=      5-min Rain = 0
KES1 181835Z 17010KT 28/11 A2966 RMK A01 T02760113  RH  036%=      5-min Rain = 0
KES1 181836Z 17010KT 28/12 A2966 RMK A01 T02810116  RH  036%=      5-min Rain = 0
KES1 181837Z 17012G19KT 29/11 A2966 RMK A01 T02850114  RH  035%=      5-min Rain = 0
KES1 181838Z 16013KT 28/11 A2966 RMK A01 T02830111  RH  034%=      5-min Rain = 0
KES1 181839Z 17017KT 28/11 A2966 RMK A01 T02820111  RH  035%=      5-min Rain = 0
KES1 181840Z 16016G21KT 28/11 A2966 RMK A01 T02790110  RH  035%=      5-min Rain = 0
KES1 181841Z 17012KT 28/11 A2966 RMK A01 T02770111  RH  035%=      5-min Rain = 0
KES1 181842Z 17014G19KT 28/11 A2966 RMK A01 T02780110  RH  035%=      5-min Rain = 0
KES1 181843Z 16011KT 28/11 A2966 RMK A01 T02780111  RH  035%=      5-min Rain = 0
KES1 181844Z 17014KT 28/11 A2966 RMK A01 T02790112  RH  035%=      5-min Rain = 0
KES1 181845Z 16013G18KT 28/11 A2966 RMK A01 T02790110  RH  035%=      5-min Rain = 0
KES1 181846Z 16009KT 28/11 A2966 RMK A01 T02760110  RH  035%=      5-min Rain = 0
KES1 181847Z 16012G18KT 28/11 A2965 RMK A01 T02770111  RH  036%=      5-min Rain = 0
KES1 181848Z 18012G18KT 28/11 A2966 RMK A01 T02790112  RH  035%=      5-min Rain = 0
KES1 181849Z 19014KT 28/11 A2966 RMK A01 T02820111  RH  034%=      5-min Rain = 0
KES1 181850Z 17010KT 28/11 A2965 RMK A01 T02800110  RH  035%=      5-min Rain = 0
KES1 181851Z 17012KT 28/11 A2965 RMK A01 T02780110  RH  035%=      5-min Rain = 0
KES1 181852Z 17010KT 28/11 A2965 RMK A01 T02780110  RH  035%=      5-min Rain = 0
KES1 181853Z 16011KT 28/11 A2965 RMK A01 T02780111  RH  035%=      5-min Rain = 0
KES1 181854Z 17011KT 28/11 A2965 RMK A01 T02780111  RH  035%=      5-min Rain = 0
KES1 181855Z 15014KT 28/11 A2965 RMK A01 T02780110  RH  035%=      5-min Rain = 0
KES1 181856Z 16014KT 28/11 A2965 RMK A01 T02790111  RH  035%=      5-min Rain = 0
KES1 181857Z 16012KT 28/11 A2965 RMK A01 T02790110  RH  035%=      5-min Rain = 0
KES1 181858Z 17015G20KT 28/11 A2965 RMK A01 T02790111  RH  035%=      5-min Rain = 0
KES1 181859Z 17017KT 28/11 A2965 RMK A01 T02810111  RH  035%=      5-min Rain = 0
KES1 181900Z 16013KT 28/11 A2965 RMK A01 T02810110  RH  034%=      5-min Rain = 0
KES1 181901Z 17009KT 28/11 A2965 RMK A01 T02780109  RH  035%=      5-min Rain = 0
KES1 181902Z 17011G16KT 28/11 A2965 RMK A01 T02760109  RH  035%=      5-min Rain = 0
KES1 181903Z 18012KT 28/11 A2964 RMK A01 T02750109  RH  035%=      5-min Rain = 0
KES1 181904Z 18010G16KT 27/11 A2964 RMK A01 T02740110  RH  036%=      5-min Rain = 0
KES1 181905Z 17012KT 27/11 A2964 RMK A01 T02740110  RH  036%=      5-min Rain = 0
KES1 181906Z 18013KT 27/11 A2964 RMK A01 T02730108  RH  036%=      5-min Rain = 0
KES1 181907Z 18012G17KT 27/11 A2964 RMK A01 T02720109  RH  036%=      5-min Rain = 0
KES1 181908Z 16012KT 27/11 A2964 RMK A01 T02720108  RH  036%=      5-min Rain = 0
KES1 181909Z 15012KT 27/11 A2964 RMK A01 T02730110  RH  036%=      5-min Rain = 0
KES1 181910Z 16013G18KT 28/11 A2964 RMK A01 T02760110  RH  036%=      5-min Rain = 0
KES1 181911Z 18012G18KT 28/11 A2963 RMK A01 T02810112  RH  035%=      5-min Rain = 0
KES1 181912Z 19014KT 28/11 A2963 RMK A01 T02840111  RH  034%=      5-min Rain = 0
KES1 181913Z 18014KT 28/11 A2963 RMK A01 T02840110  RH  034%=      5-min Rain = 0
KES1 181914Z 17017KT 28/11 A2963 RMK A01 T02820110  RH  034%=      5-min Rain = 0
KES1 181915Z 17016G22KT 28/11 A2963 RMK A01 T02800109  RH  034%=      5-min Rain = 0
KES1 181916Z 17016G21KT 28/11 A2963 RMK A01 T02790109  RH  035%=      5-min Rain = 0
KES1 181917Z 18017G22KT 28/11 A2963 RMK A01 T02790109  RH  035%=      5-min Rain = 0
KES1 181918Z 17014G19KT 28/11 A2962 RMK A01 T02800109  RH  034%=      5-min Rain = 0
KES1 181919Z 16019KT 28/11 A2962 RMK A01 T02800109  RH  035%=      5-min Rain = 0
KES1 181920Z 17014KT 28/11 A2962 RMK A01 T02800109  RH  034%=      5-min Rain = 0
KES1 181921Z 18017KT 28/11 A2962 RMK A01 T02810109  RH  034%=      5-min Rain = 0
KES1 181922Z 18014KT 28/11 A2962 RMK A01 T02810109  RH  034%=      5-min Rain = 0
KES1 181923Z 17013KT 28/11 A2962 RMK A01 T02810110  RH  034%=      5-min Rain = 0
KES1 181924Z 16015KT 28/11 A2962 RMK A01 T02820109  RH  034%=      5-min Rain = 0
KES1 181925Z 17016KT 28/11 A2962 RMK A01 T02830109  RH  034%=      5-min Rain = 0
KES1 181926Z 16014KT 28/11 A2962 RMK A01 T02810109  RH  034%=      5-min Rain = 0
KES1 181927Z 16014KT 28/11 A2962 RMK A01 T02810109  RH  034%=      5-min Rain = 0
KES1 181928Z 16016KT 28/11 A2962 RMK A01 T02830111  RH  034%=      5-min Rain = 0
KES1 181929Z 16014G19KT 28/11 A2962 RMK A01 T02840110  RH  034%=      5-min Rain = 0
KES1 181930Z 17012KT 28/11 A2962 RMK A01 T02830109  RH  034%=      5-min Rain = 0
KES1 181931Z 16015G20KT 28/11 A2962 RMK A01 T02840112  RH  034%=      5-min Rain = 0
KES1 181932Z 16013G18KT 29/11 A2962 RMK A01 T02890113  RH  034%=      5-min Rain = 0
KES1 181933Z 17011G16KT 29/11 A2962 RMK A01 T02910114  RH  033%=      5-min Rain = 0
KES1 181934Z 17013KT 29/11 A2962 RMK A01 T02940112  RH  033%=      5-min Rain = 0
KES1 181935Z 16011KT 29/11 A2962 RMK A01 T02940112  RH  033%=      5-min Rain = 0
KES1 181936Z 16014KT 29/11 A2962 RMK A01 T02920113  RH  033%=      5-min Rain = 0
KES1 181937Z 18012KT 29/11 A2962 RMK A01 T02900111  RH  033%=      5-min Rain = 0
KES1 181938Z 18014G20KT 29/11 A2962 RMK A01 T02890110  RH  033%=      5-min Rain = 0
KES1 181939Z 18011G18KT 29/11 A2962 RMK A01 T02870110  RH  033%=      5-min Rain = 0
KES1 181940Z 18016G22KT 29/11 A2962 RMK A01 T02860110  RH  034%=      5-min Rain = 0
KES1 181941Z 19016G21KT 29/11 A2962 RMK A01 T02860109  RH  033%=      5-min Rain = 0
KES1 181942Z 19015G21KT 28/11 A2962 RMK A01 T02840108  RH  033%=      5-min Rain = 0
KES1 181943Z 18018KT 28/11 A2962 RMK A01 T02830108  RH  034%=      5-min Rain = 0
KES1 181944Z 17016KT 28/11 A2962 RMK A01 T02830107  RH  034%=      5-min Rain = 0
KES1 181945Z 17014KT 28/11 A2962 RMK A01 T02820108  RH  034%=      5-min Rain = 0
KES1 181946Z 18016KT 28/11 A2962 RMK A01 T02830109  RH  034%=      5-min Rain = 0
KES1 181947Z 19014G19KT 28/11 A2962 RMK A01 T02840109  RH  034%=      5-min Rain = 0
KES1 181948Z 19013G20KT 28/11 A2962 RMK A01 T02840110  RH  034%=      5-min Rain = 0
KES1 181949Z 19016KT 29/11 A2962 RMK A01 T02850109  RH  034%=      5-min Rain = 0
KES1 181950Z 19013G18KT 29/11 A2962 RMK A01 T02850109  RH  034%=      5-min Rain = 0
KES1 181951Z 19014KT 29/11 A2962 RMK A01 T02850110  RH  034%=      5-min Rain = 0
KES1 181952Z 19014KT 29/11 A2962 RMK A01 T02850110  RH  034%=      5-min Rain = 0
KES1 181953Z 18011KT 29/11 A2962 RMK A01 T02850109  RH  034%=      5-min Rain = 0
KES1 181954Z 20012KT 29/11 A2962 RMK A01 T02850110  RH  034%=      5-min Rain = 0
KES1 181955Z 19014KT 29/11 A2962 RMK A01 T02850109  RH  034%=      5-min Rain = 0
KES1 181956Z 19011KT 29/11 A2962 RMK A01 T02850110  RH  034%=      5-min Rain = 0
KES1 181957Z 18009KT 29/11 A2962 RMK A01 T02850110  RH  034%=      5-min Rain = 0
KES1 181958Z 18012KT 29/11 A2962 RMK A01 T02850110  RH  034%=      5-min Rain = 0
KES1 181959Z 18013KT 29/11 A2961 RMK A01 T02850109  RH  034%=      5-min Rain = 0
KES1 182000Z 18012G17KT 29/11 A2962 RMK A01 T02850110  RH  034%=      5-min Rain = 0
KES1 182001Z 18014KT 29/11 A2962 RMK A01 T02860110  RH  034%=      5-min Rain = 0
KES1 182002Z 17015KT 29/11 A2961 RMK A01 T02860110  RH  034%=      5-min Rain = 0
KES1 182003Z 18010KT 29/11 A2962 RMK A01 T02860111  RH  034%=      5-min Rain = 0
KES1 182004Z 17010KT 29/11 A2962 RMK A01 T02860111  RH  034%=      5-min Rain = 0
KES1 182005Z 17010KT 29/11 A2961 RMK A01 T02860111  RH  034%=      5-min Rain = 0
KES1 182006Z 17010KT 29/11 A2961 RMK A01 T02860111  RH  034%=      5-min Rain = 0
KES1 182007Z 17012KT 29/11 A2961 RMK A01 T02870112  RH  034%=      5-min Rain = 0
KES1 182008Z 15012KT 29/11 A2961 RMK A01 T02900112  RH  033%=      5-min Rain = 0
KES1 182009Z 16010KT 29/11 A2961 RMK A01 T02920114  RH  033%=      5-min Rain = 0
KES1 182010Z 17009KT 29/11 A2961 RMK A01 T02940114  RH  033%=      5-min Rain = 0
KES1 182011Z 17011KT 30/12 A2961 RMK A01 T02980116  RH  033%=      5-min Rain = 0
KES1 182012Z 17008KT 30/12 A2961 RMK A01 T03000115  RH  032%=      5-min Rain = 0
KES1 182013Z 19008G15KT 30/12 A2961 RMK A01 T03030120  RH  032%=      5-min Rain = 0
KES1 182014Z 19014G20KT 31/12 A2961 RMK A01 T03070116  RH  031%=      5-min Rain = 0
KES1 182015Z 19014KT 31/12 A2961 RMK A01 T03080116  RH  031%=      5-min Rain = 0
KES1 182016Z 19010KT 31/12 A2961 RMK A01 T03080115  RH  031%=      5-min Rain = 0
KES1 182017Z 20009G17KT 31/12 A2961 RMK A01 T03070117  RH  031%=      5-min Rain = 0
KES1 182018Z 19016G22KT 31/12 A2961 RMK A01 T03100115  RH  030%=      5-min Rain = 0
KES1 182019Z 19011KT 31/12 A2961 RMK A01 T03090116  RH  030%=      5-min Rain = 0
KES1 182020Z 19012G18KT 31/12 A2961 RMK A01 T03090116  RH  030%=      5-min Rain = 0
KES1 182021Z 19015KT 31/11 A2961 RMK A01 T03080114  RH  030%=      5-min Rain = 0
KES1 182022Z 19014KT 31/11 A296 RMK A01 T03070113  RH  030%=      5-min Rain = 0
KES1 182023Z 18012G18KT 31/12 A2961 RMK A01 T03060115  RH  031%=      5-min Rain = 0
KES1 182024Z 20014G19KT 31/11 A296 RMK A01 T03070114  RH  031%=      5-min Rain = 0
KES1 182025Z 20014KT 30/11 A296 RMK A01 T03040112  RH  031%=      5-min Rain = 0
KES1 182026Z 19015KT 30/11 A296 RMK A01 T03000111  RH  031%=      5-min Rain = 0
KES1 182027Z 18013KT 30/11 A296 RMK A01 T02970111  RH  032%=      5-min Rain = 0
KES1 182028Z 19015KT 30/11 A296 RMK A01 T02970113  RH  032%=      5-min Rain = 0
KES1 182029Z 20012KT 30/11 A296 RMK A01 T02970113  RH  032%=      5-min Rain = 0
KES1 182030Z 19009KT 30/11 A296 RMK A01 T02970114  RH  032%=      5-min Rain = 0
KES1 182031Z 16012KT 30/12 A296 RMK A01 T02980115  RH  032%=      5-min Rain = 0
KES1 182032Z 18011KT 30/11 A296 RMK A01 T02970114  RH  032%=      5-min Rain = 0
KES1 182033Z 20012KT 30/11 A296 RMK A01 T02960114  RH  033%=      5-min Rain = 0
KES1 182034Z 19015KT 30/12 A296 RMK A01 T02960115  RH  033%=      5-min Rain = 0
KES1 182035Z 20015KT 30/12 A296 RMK A01 T02950115  RH  033%=      5-min Rain = 0
KES1 182036Z 19015G20KT 30/12 A296 RMK A01 T02950115  RH  033%=      5-min Rain = 0
KES1 182037Z 19011G16KT 30/12 A296 RMK A01 T02960115  RH  033%=      5-min Rain = 0
KES1 182038Z 19010G15KT 30/12 A296 RMK A01 T02970117  RH  033%=      5-min Rain = 0
KES1 182039Z 19014KT 30/12 A2959 RMK A01 T03000116  RH  032%=      5-min Rain = 0
KES1 182040Z 19012KT 30/12 A2959 RMK A01 T02990115  RH  032%=      5-min Rain = 0
KES1 182041Z 18012KT 30/12 A2959 RMK A01 T02970115  RH  032%=      5-min Rain = 0
KES1 182042Z 18010G15KT 30/12 A2959 RMK A01 T02960116  RH  033%=      5-min Rain = 0
KES1 182043Z 19012KT 30/12 A2959 RMK A01 T02960116  RH  033%=      5-min Rain = 0
KES1 182044Z 19008KT 30/12 A2959 RMK A01 T02970117  RH  033%=      5-min Rain = 0
KES1 182045Z 19009KT 30/12 A2959 RMK A01 T03000118  RH  033%=      5-min Rain = 0
KES1 182046Z 17008G13KT 31/12 A2959 RMK A01 T03050121  RH  032%=      5-min Rain = 0
KES1 182047Z 18011KT 31/12 A2959 RMK A01 T03100118  RH  031%=      5-min Rain = 0
KES1 182048Z 16013G18KT 31/12 A2959 RMK A01 T03100117  RH  031%=      5-min Rain = 0
KES1 182049Z 17011KT 31/12 A2959 RMK A01 T03090117  RH  031%=      5-min Rain = 0
KES1 182050Z 17014G19KT 31/12 A2959 RMK A01 T03080118  RH  031%=      5-min Rain = 0
KES1 182051Z 19015KT 31/12 A2959 RMK A01 T03080118  RH  031%=      5-min Rain = 0
KES1 182052Z 18016KT 31/12 A2959 RMK A01 T03090119  RH  031%=      5-min Rain = 0
KES1 182053Z 19015G20KT 31/12 A2959 RMK A01 T03100119  RH  031%=      5-min Rain = 0
KES1 182054Z 18014G19KT 31/12 A2959 RMK A01 T03090118  RH  031%=      5-min Rain = 0
KES1 182055Z 19014G20KT 31/12 A2959 RMK A01 T03090120  RH  031%=      5-min Rain = 0
KES1 182056Z 18016KT 31/12 A2959 RMK A01 T03100119  RH  031%=      5-min Rain = 0
KES1 182057Z 19013KT 31/12 A2959 RMK A01 T03080119  RH  031%=      5-min Rain = 0
KES1 182058Z 18013G18KT 31/12 A2959 RMK A01 T03070118  RH  031%=      5-min Rain = 0
KES1 182059Z 18011KT 31/12 A2959 RMK A01 T03060120  RH  032%=      5-min Rain = 0
KES1 182100Z 19009G16KT 31/12 A2959 RMK A01 T03090122  RH  032%=      5-min Rain = 0
KES1 182101Z 18013KT 31/12 A2959 RMK A01 T03110121  RH  031%=      5-min Rain = 0
KES1 182102Z 19015KT 31/12 A2959 RMK A01 T03100120  RH  031%=      5-min Rain = 0
KES1 182103Z 20014KT 31/12 A2959 RMK A01 T03080119  RH  031%=      5-min Rain = 0
KES1 182104Z 19013KT 30/12 A2959 RMK A01 T03040118  RH  032%=      5-min Rain = 0
KES1 182105Z 21012KT 30/12 A2959 RMK A01 T03030119  RH  032%=      5-min Rain = 0
KES1 182106Z 21010G15KT 30/12 A2959 RMK A01 T03030118  RH  032%=      5-min Rain = 0
KES1 182107Z 20013KT 30/12 A2959 RMK A01 T03020119  RH  032%=      5-min Rain = 0
KES1 182108Z 20013KT 30/12 A2959 RMK A01 T03010117  RH  032%=      5-min Rain = 0
KES1 182109Z 19012G18KT 30/12 A2958 RMK A01 T02990118  RH  033%=      5-min Rain = 0
KES1 182110Z 19012KT 30/12 A2958 RMK A01 T02980117  RH  033%=      5-min Rain = 0
KES1 182111Z 19012G18KT 30/12 A2958 RMK A01 T02990119  RH  033%=      5-min Rain = 0
KES1 182112Z 18014G19KT 30/12 A2958 RMK A01 T03020119  RH  032%=      5-min Rain = 0
KES1 182113Z 18014KT 30/12 A2958 RMK A01 T03030119  RH  032%=      5-min Rain = 0
KES1 182114Z 19016G21KT 30/12 A2958 RMK A01 T03040118  RH  032%=      5-min Rain = 0
KES1 182115Z 19017KT 30/12 A2958 RMK A01 T03040117  RH  032%=      5-min Rain = 0
KES1 182116Z 21012KT 30/12 A2958 RMK A01 T03040118  RH  032%=      5-min Rain = 0
KES1 182117Z 18011KT 30/12 A2958 RMK A01 T03030118  RH  032%=      5-min Rain = 0
KES1 182118Z 18011KT 30/12 A2958 RMK A01 T03040119  RH  032%=      5-min Rain = 0
KES1 182119Z 17011KT 30/12 A2958 RMK A01 T03040117  RH  032%=      5-min Rain = 0
KES1 182120Z 16010KT 30/12 A2958 RMK A01 T03030119  RH  032%=      5-min Rain = 0
KES1 182121Z 16013KT 30/12 A2958 RMK A01 T03040119  RH  032%=      5-min Rain = 0
KES1 182122Z 17012KT 30/12 A2958 RMK A01 T03040118  RH  032%=      5-min Rain = 0
KES1 182123Z 16010KT 30/12 A2958 RMK A01 T03040119  RH  032%=      5-min Rain = 0
KES1 182124Z 17009KT 30/12 A2958 RMK A01 T03040119  RH  032%=      5-min Rain = 0
KES1 182125Z 18007G12KT 31/12 A2958 RMK A01 T03050120  RH  032%=      5-min Rain = 0
KES1 182126Z 17006KT 31/12 A2958 RMK A01 T03080122  RH  032%=      5-min Rain = 0
KES1 182127Z 17012KT 31/12 A2958 RMK A01 T03110121  RH  031%=      5-min Rain = 0
KES1 182128Z 16009KT 31/12 A2958 RMK A01 T03100119  RH  031%=      5-min Rain = 0
KES1 182129Z 16012KT 31/12 A2958 RMK A01 T03090120  RH  031%=      5-min Rain = 0
KES1 182130Z 19010KT 31/12 A2958 RMK A01 T03090120  RH  031%=      5-min Rain = 0
KES1 182131Z 19011KT 31/12 A2958 RMK A01 T03090119  RH  031%=      5-min Rain = 0
KES1 182132Z 19011KT 31/12 A2958 RMK A01 T03080118  RH  031%=      5-min Rain = 0
KES1 182133Z 18010KT 31/12 A2958 RMK A01 T03070120  RH  032%=      5-min Rain = 0
KES1 182134Z 18013KT 31/12 A2958 RMK A01 T03080119  RH  031%=      5-min Rain = 0
KES1 182135Z 18012KT 31/12 A2958 RMK A01 T03080119  RH  031%=      5-min Rain = 0
KES1 182136Z 18011KT 31/12 A2958 RMK A01 T03060118  RH  031%=      5-min Rain = 0
KES1 182137Z 18010KT 31/12 A2958 RMK A01 T03050119  RH  032%=      5-min Rain = 0
KES1 182138Z 16011KT 31/12 A2958 RMK A01 T03050119  RH  032%=      5-min Rain = 0
KES1 182139Z 19013KT 31/12 A2958 RMK A01 T03060120  RH  032%=      5-min Rain = 0
KES1 182140Z 18013KT 31/12 A2958 RMK A01 T03070119  RH  031%=      5-min Rain = 0
KES1 182141Z 17012KT 31/12 A2958 RMK A01 T03070119  RH  032%=      5-min Rain = 0
KES1 182142Z 17010KT 31/12 A2958 RMK A01 T03060119  RH  032%=      5-min Rain = 0
KES1 182143Z 18011G16KT 31/12 A2958 RMK A01 T03060120  RH  032%=      5-min Rain = 0
KES1 182144Z 18012KT 31/12 A2958 RMK A01 T03070119  RH  032%=      5-min Rain = 0
KES1 182145Z 18011KT 31/12 A2958 RMK A01 T03050118  RH  032%=      5-min Rain = 0
KES1 182146Z 18008KT 30/12 A2958 RMK A01 T03030119  RH  032%=      5-min Rain = 0
KES1 182147Z 18011KT 30/12 A2958 RMK A01 T03020119  RH  033%=      5-min Rain = 0
KES1 182148Z 18011KT 30/12 A2958 RMK A01 T03000117  RH  032%=      5-min Rain = 0
KES1 182149Z 17010KT 30/12 A2958 RMK A01 T02990119  RH  033%=      5-min Rain = 0
KES1 182150Z 18010KT 30/12 A2958 RMK A01 T02990119  RH  033%=      5-min Rain = 0
KES1 182151Z 17010KT 30/12 A2958 RMK A01 T02990118  RH  033%=      5-min Rain = 0
KES1 182152Z 17010KT 30/12 A2958 RMK A01 T02980117  RH  033%=      5-min Rain = 0
KES1 182153Z 15014KT 30/12 A2957 RMK A01 T02980118  RH  033%=      5-min Rain = 0
KES1 182154Z 15014KT 30/12 A2957 RMK A01 T02980118  RH  033%=      5-min Rain = 0
KES1 182155Z 15011KT 30/12 A2957 RMK A01 T02980118  RH  033%=      5-min Rain = 0
KES1 182156Z 16010KT 30/12 A2957 RMK A01 T02990118  RH  033%=      5-min Rain = 0
KES1 182157Z 16010KT 30/12 A2957 RMK A01 T03010120  RH  033%=      5-min Rain = 0
KES1 182158Z 16011KT 30/12 A2957 RMK A01 T03030119  RH  032%=      5-min Rain = 0
KES1 182159Z 16009KT 30/12 A2957 RMK A01 T03040119  RH  032%=      5-min Rain = 0
KES1 182200Z 14010KT 30/12 A2957 RMK A01 T03040121  RH  033%=      5-min Rain = 0
KES1 182201Z 15010KT 31/12 A2957 RMK A01 T03050121  RH  032%=      5-min Rain = 0
KES1 182202Z 16009KT 30/12 A2957 RMK A01 T03040119  RH  032%=      5-min Rain = 0
KES1 182203Z 17008KT 30/12 A2957 RMK A01 T03030119  RH  032%=      5-min Rain = 0
KES1 182204Z 15010KT 30/12 A2957 RMK A01 T03020119  RH  033%=      5-min Rain = 0
KES1 182205Z 17010KT 30/12 A2957 RMK A01 T03020119  RH  032%=      5-min Rain = 0
KES1 182206Z 17009KT 30/12 A2957 RMK A01 T03030118  RH  032%=      5-min Rain = 0
KES1 182207Z 16006KT 30/12 A2957 RMK A01 T03030120  RH  032%=      5-min Rain = 0
KES1 182208Z 16007KT 30/12 A2957 RMK A01 T03030120  RH  032%=      5-min Rain = 0
KES1 182209Z 16012KT 31/12 A2957 RMK A01 T03050121  RH  032%=      5-min Rain = 0
KES1 182210Z 16009KT 31/12 A2957 RMK A01 T03060119  RH  032%=      5-min Rain = 0
KES1 182211Z 16012KT 31/12 A2957 RMK A01 T03060120  RH  032%=      5-min Rain = 0
KES1 182212Z 16014KT 31/12 A2957 RMK A01 T03070118  RH  031%=      5-min Rain = 0
KES1 182213Z 14011KT 31/12 A2957 RMK A01 T03060119  RH  032%=      5-min Rain = 0
KES1 182214Z 15013KT 31/12 A2957 RMK A01 T03060120  RH  032%=      5-min Rain = 0
KES1 182215Z 15009G14KT 31/12 A2957 RMK A01 T03060119  RH  032%=      5-min Rain = 0
KES1 182216Z 16008KT 31/12 A2957 RMK A01 T03060120  RH  032%=      5-min Rain = 0
KES1 182217Z 16007KT 31/12 A2956 RMK A01 T03060120  RH  032%=      5-min Rain = 0
KES1 182218Z 15011KT 31/12 A2956 RMK A01 T03070121  RH  032%=      5-min Rain = 0
KES1 182219Z 15010KT 31/12 A2956 RMK A01 T03080120  RH  031%=      5-min Rain = 0
KES1 182220Z 15009KT 31/12 A2956 RMK A01 T03070120  RH  032%=      5-min Rain = 0
KES1 182221Z 16010KT 31/12 A2956 RMK A01 T03060119  RH  032%=      5-min Rain = 0
KES1 182222Z 15009KT 31/12 A2956 RMK A01 T03060120  RH  032%=      5-min Rain = 0
KES1 182223Z 17008KT 31/12 A2956 RMK A01 T03060121  RH  032%=      5-min Rain = 0
KES1 182224Z 16008KT 31/12 A2956 RMK A01 T03070121  RH  032%=      5-min Rain = 0
KES1 182225Z 16009KT 31/12 A2956 RMK A01 T03080121  RH  032%=      5-min Rain = 0
KES1 182226Z 17010G17KT 31/12 A2956 RMK A01 T03080120  RH  032%=      5-min Rain = 0
KES1 182227Z 16013KT 31/12 A2956 RMK A01 T03070120  RH  032%=      5-min Rain = 0
KES1 182228Z 16013KT 31/12 A2956 RMK A01 T03070119  RH  032%=      5-min Rain = 0
KES1 182229Z 16011KT 31/12 A2956 RMK A01 T03060119  RH  032%=      5-min Rain = 0
KES1 182230Z 16010KT 31/12 A2956 RMK A01 T03060119  RH  032%=      5-min Rain = 0
KES1 182231Z 14009KT 31/12 A2956 RMK A01 T03060119  RH  032%=      5-min Rain = 0
KES1 182232Z 16009KT 31/12 A2956 RMK A01 T03060120  RH  032%=      5-min Rain = 0
KES1 182233Z 16011G16KT 31/12 A2956 RMK A01 T03060119  RH  032%=      5-min Rain = 0
KES1 182234Z 16014KT 31/12 A2956 RMK A01 T03060118  RH  031%=      5-min Rain = 0
KES1 182235Z 16013KT 31/12 A2956 RMK A01 T03060118  RH  031%=      5-min Rain = 0
KES1 182236Z 16012KT 31/12 A2956 RMK A01 T03060117  RH  031%=      5-min Rain = 0
KES1 182237Z 16011KT 31/12 A2956 RMK A01 T03050117  RH  031%=      5-min Rain = 0
KES1 182238Z 15009KT 31/12 A2956 RMK A01 T03050118  RH  032%=      5-min Rain = 0
KES1 182239Z 16011G16KT 31/12 A2956 RMK A01 T03050118  RH  032%=      5-min Rain = 0
KES1 182240Z 15013KT 31/12 A2956 RMK A01 T03050117  RH  031%=      5-min Rain = 0
KES1 182241Z 16011KT 31/12 A2956 RMK A01 T03050118  RH  032%=      5-min Rain = 0
KES1 182242Z 16010KT 31/12 A2956 RMK A01 T03050118  RH  032%=      5-min Rain = 0
KES1 182243Z 15010KT 31/12 A2956 RMK A01 T03050118  RH  032%=      5-min Rain = 0
KES1 182244Z 15010KT 31/12 A2956 RMK A01 T03050118  RH  032%=      5-min Rain = 0
KES1 182245Z 14011KT 31/12 A2956 RMK A01 T03060119  RH  032%=      5-min Rain = 0
KES1 182246Z 14010KT 31/12 A2956 RMK A01 T03060119  RH  032%=      5-min Rain = 0
KES1 182247Z 16009KT 31/12 A2956 RMK A01 T03060121  RH  032%=      5-min Rain = 0
KES1 182248Z 15009KT 31/12 A2956 RMK A01 T03060119  RH  032%=      5-min Rain = 0
KES1 182249Z 17008KT 31/12 A2956 RMK A01 T03050121  RH  032%=      5-min Rain = 0
KES1 182250Z 17009KT 31/12 A2956 RMK A01 T03050119  RH  032%=      5-min Rain = 0
KES1 182251Z 18009KT 31/12 A2956 RMK A01 T03050119  RH  032%=      5-min Rain = 0
KES1 182252Z 16010KT 31/12 A2956 RMK A01 T03050118  RH  032%=      5-min Rain = 0
KES1 182253Z 17008KT 31/12 A2956 RMK A01 T03050119  RH  032%=      5-min Rain = 0
KES1 182254Z 17011KT 31/12 A2955 RMK A01 T03050119  RH  032%=      5-min Rain = 0
KES1 182255Z 16009KT 31/12 A2955 RMK A01 T03060119  RH  032%=      5-min Rain = 0
KES1 182256Z 16008KT 31/12 A2955 RMK A01 T03060119  RH  032%=      5-min Rain = 0
KES1 182257Z 16011KT 31/12 A2955 RMK A01 T03060119  RH  032%=      5-min Rain = 0
KES1 182258Z 16012KT 31/12 A2955 RMK A01 T03060118  RH  032%=      5-min Rain = 0
KES1 182259Z 15010KT 31/12 A2955 RMK A01 T03050117  RH  031%=      5-min Rain = 0
KES1 182300Z 16011G17KT 31/12 A2955 RMK A01 T03050119  RH  032%=      5-min Rain = 0
KES1 182301Z 16012KT 31/12 A2955 RMK A01 T03050118  RH  032%=      5-min Rain = 0
KES1 182302Z 16010KT 31/12 A2955 RMK A01 T03050117  RH  032%=      5-min Rain = 0
KES1 182303Z 15009KT 31/12 A2955 RMK A01 T03050118  RH  032%=      5-min Rain = 0
KES1 182304Z 15009KT 30/12 A2955 RMK A01 T03040118  RH  032%=      5-min Rain = 0
KES1 182305Z 15011KT 30/12 A2955 RMK A01 T03040118  RH  032%=      5-min Rain = 0
KES1 182306Z 16012KT 30/12 A2955 RMK A01 T03040118  RH  032%=      5-min Rain = 0
KES1 182307Z 15011KT 30/12 A2955 RMK A01 T03030118  RH  032%=      5-min Rain = 0
KES1 182308Z 15011KT 30/12 A2955 RMK A01 T03030118  RH  032%=      5-min Rain = 0
KES1 182309Z 15009KT 30/12 A2955 RMK A01 T03030119  RH  032%=      5-min Rain = 0
KES1 182310Z 15008KT 30/12 A2955 RMK A01 T03020119  RH  032%=      5-min Rain = 0
KES1 182311Z 15009KT 30/12 A2955 RMK A01 T03020120  RH  033%=      5-min Rain = 0
KES1 182312Z 15008KT 30/12 A2955 RMK A01 T03010119  RH  033%=      5-min Rain = 0
KES1 182313Z 14009KT 30/12 A2955 RMK A01 T03010119  RH  033%=      5-min Rain = 0
KES1 182314Z 15011KT 30/12 A2955 RMK A01 T03010119  RH  033%=      5-min Rain = 0
KES1 182315Z 15008KT 30/12 A2955 RMK A01 T03010119  RH  033%=      5-min Rain = 0
KES1 182316Z 15009KT 30/12 A2955 RMK A01 T03010119  RH  033%=      5-min Rain = 0
KES1 182317Z 15011KT 30/12 A2955 RMK A01 T03010119  RH  033%=      5-min Rain = 0
KES1 182318Z 15012KT 30/12 A2955 RMK A01 T03000119  RH  033%=      5-min Rain = 0
KES1 182319Z 15009KT 30/12 A2955 RMK A01 T03000119  RH  033%=      5-min Rain = 0
KES1 182320Z 16011KT 30/12 A2955 RMK A01 T03000119  RH  033%=      5-min Rain = 0
KES1 182321Z 15011G16KT 30/12 A2955 RMK A01 T03000119  RH  033%=      5-min Rain = 0
KES1 182322Z 16010KT 30/12 A2955 RMK A01 T03000119  RH  033%=      5-min Rain = 0
KES1 182323Z 16008KT 30/12 A2955 RMK A01 T03000120  RH  033%=      5-min Rain = 0
KES1 182324Z 16010KT 30/12 A2955 RMK A01 T02990119  RH  033%=      5-min Rain = 0
KES1 182325Z 16009KT 30/12 A2955 RMK A01 T02980120  RH  033%=      5-min Rain = 0
KES1 182326Z 16010KT 30/12 A2955 RMK A01 T02980120  RH  033%=      5-min Rain = 0
KES1 182327Z 16010KT 30/12 A2955 RMK A01 T02980120  RH  033%=      5-min Rain = 0
KES1 182328Z 16011KT 30/12 A2955 RMK A01 T02970120  RH  034%=      5-min Rain = 0
KES1 182329Z 16011KT 30/12 A2955 RMK A01 T02970120  RH  033%=      5-min Rain = 0
KES1 182330Z 16012KT 30/12 A2955 RMK A01 T02970119  RH  034%=      5-min Rain = 0
KES1 182331Z 16009KT 30/12 A2955 RMK A01 T02970119  RH  034%=      5-min Rain = 0
KES1 182332Z 17011KT 30/12 A2955 RMK A01 T02960120  RH  034%=      5-min Rain = 0
KES1 182333Z 16009KT 30/12 A2955 RMK A01 T02960119  RH  034%=      5-min Rain = 0
KES1 182334Z 16010KT 30/12 A2955 RMK A01 T02960120  RH  034%=      5-min Rain = 0
KES1 182335Z 16010KT 30/12 A2955 RMK A01 T02950120  RH  034%=      5-min Rain = 0
KES1 182336Z 16010KT 29/12 A2955 RMK A01 T02940120  RH  034%=      5-min Rain = 0
KES1 182337Z 16008KT 29/12 A2955 RMK A01 T02940120  RH  034%=      5-min Rain = 0
KES1 182338Z 16010KT 29/12 A2955 RMK A01 T02940120  RH  034%=      5-min Rain = 0
KES1 182339Z 16010KT 29/12 A2955 RMK A01 T02930120  RH  034%=      5-min Rain = 0
KES1 182340Z 16010KT 29/12 A2955 RMK A01 T02930120  RH  034%=      5-min Rain = 0
KES1 182341Z 16010KT 29/12 A2955 RMK A01 T02920119  RH  034%=      5-min Rain = 0
KES1 182342Z 16008KT 29/12 A2955 RMK A01 T02920119  RH  034%=      5-min Rain = 0
KES1 182343Z 16009KT 29/12 A2955 RMK A01 T02920120  RH  035%=      5-min Rain = 0
KES1 182344Z 16007KT 29/12 A2955 RMK A01 T02910120  RH  035%=      5-min Rain = 0
KES1 182345Z 16009KT 29/12 A2955 RMK A01 T02900120  RH  035%=      5-min Rain = 0
KES1 182346Z 16008KT 29/12 A2955 RMK A01 T02890120  RH  035%=      5-min Rain = 0
KES1 182347Z 16008KT 29/12 A2955 RMK A01 T02890120  RH  035%=      5-min Rain = 0
KES1 182348Z 16009KT 29/12 A2955 RMK A01 T02880120  RH  035%=      5-min Rain = 0
KES1 182349Z 16009KT 29/12 A2955 RMK A01 T02880120  RH  035%=      5-min Rain = 0
KES1 182350Z 16008KT 29/12 A2955 RMK A01 T02880120  RH  035%=      5-min Rain = 0
KES1 182351Z 16008KT 29/12 A2955 RMK A01 T02870120  RH  036%=      5-min Rain = 0
KES1 182352Z 16007KT 29/12 A2955 RMK A01 T02860120  RH  036%=      5-min Rain = 0
KES1 182353Z 16007KT 29/12 A2955 RMK A01 T02850120  RH  036%=      5-min Rain = 0
KES1 182354Z 15007KT 28/12 A2955 RMK A01 T02840120  RH  036%=      5-min Rain = 0
KES1 182355Z 15008KT 28/12 A2955 RMK A01 T02830120  RH  036%=      5-min Rain = 0
KES1 182356Z 15008KT 28/12 A2955 RMK A01 T02820119  RH  036%=      5-min Rain = 0
KES1 182357Z 15007KT 28/12 A2955 RMK A01 T02820120  RH  037%=      5-min Rain = 0
KES1 182358Z 15007KT 28/12 A2955 RMK A01 T02810119  RH  037%=      5-min Rain = 0
KES1 182359Z 15007KT 28/12 A2955 RMK A01 T02810120  RH  037%=      5-min Rain = 0
KES1 190000Z 15007KT 28/12 A2955 RMK A01 T02800119  RH  037%=      5-min Rain = 0
KES1 190001Z 16007KT 28/12 A2955 RMK A01 T02790120  RH  037%=      5-min Rain = 0
KES1 190002Z 15007KT 28/12 A2955 RMK A01 T02790120  RH  037%=      5-min Rain = 0
KES1 190003Z 15007KT 28/12 A2955 RMK A01 T02780120  RH  037%=      5-min Rain = 0
KES1 190004Z 15008KT 28/12 A2955 RMK A01 T02770119  RH  038%=      5-min Rain = 0
KES1 190005Z 15007KT 28/12 A2955 RMK A01 T02770120  RH  038%=      5-min Rain = 0
KES1 190006Z 16007KT 28/12 A2955 RMK A01 T02760120  RH  038%=      5-min Rain = 0
KES1 190007Z 16007KT 28/12 A2955 RMK A01 T02760120  RH  038%=      5-min Rain = 0
KES1 190008Z 16006KT 28/12 A2955 RMK A01 T02750120  RH  038%=      5-min Rain = 0
KES1 190009Z 16007KT 27/12 A2955 RMK A01 T02740120  RH  038%=      5-min Rain = 0
KES1 190010Z 16007KT 27/12 A2955 RMK A01 T02720120  RH  039%=      5-min Rain = 0
KES1 190011Z 15007KT 27/12 A2955 RMK A01 T02710120  RH  039%=      5-min Rain = 0
KES1 190012Z 16007KT 27/12 A2955 RMK A01 T02710120  RH  039%=      5-min Rain = 0
KES1 190013Z 15006KT 27/12 A2955 RMK A01 T02700120  RH  039%=      5-min Rain = 0
KES1 190014Z 16005KT 27/12 A2955 RMK A01 T02690120  RH  039%=      5-min Rain = 0
KES1 190015Z 16006KT 27/12 A2955 RMK A01 T02680120  RH  040%=      5-min Rain = 0
KES1 190016Z 16006KT 27/12 A2955 RMK A01 T02670120  RH  040%=      5-min Rain = 0
KES1 190017Z 15006KT 27/12 A2955 RMK A01 T02660120  RH  040%=      5-min Rain = 0
KES1 190018Z 16006KT 26/12 A2955 RMK A01 T02640120  RH  041%=      5-min Rain = 0
KES1 190019Z 15006KT 26/12 A2955 RMK A01 T02630120  RH  041%=      5-min Rain = 0
KES1 190020Z 15006KT 26/12 A2955 RMK A01 T02620120  RH  041%=      5-min Rain = 0
KES1 190021Z 15007KT 26/12 A2955 RMK A01 T02610120  RH  041%=      5-min Rain = 0
KES1 190022Z 15007KT 26/12 A2955 RMK A01 T02610120  RH  042%=      5-min Rain = 0
KES1 190023Z 15006KT 26/12 A2955 RMK A01 T02600120  RH  042%=      5-min Rain = 0
KES1 190024Z 15007KT 26/12 A2955 RMK A01 T02590120  RH  042%=      5-min Rain = 0
KES1 190025Z 15006KT 26/12 A2955 RMK A01 T02590120  RH  042%=      5-min Rain = 0
KES1 190026Z 15007KT 26/12 A2955 RMK A01 T02580120  RH  042%=      5-min Rain = 0
KES1 190027Z 15007KT 26/12 A2955 RMK A01 T02570120  RH  042%=      5-min Rain = 0
KES1 190028Z 15007KT 26/12 A2955 RMK A01 T02560120  RH  043%=      5-min Rain = 0
KES1 190029Z 15008KT 26/12 A2955 RMK A01 T02560120  RH  043%=      5-min Rain = 0
KES1 190030Z 15008KT 26/12 A2955 RMK A01 T02550120  RH  043%=      5-min Rain = 0
KES1 190031Z 15008KT 26/12 A2955 RMK A01 T02550120  RH  043%=      5-min Rain = 0
KES1 190032Z 16008KT 26/12 A2955 RMK A01 T02550121  RH  043%=      5-min Rain = 0
KES1 190033Z 16008KT 26/12 A2955 RMK A01 T02550121  RH  043%=      5-min Rain = 0
KES1 190034Z 15009KT 26/12 A2955 RMK A01 T02550121  RH  043%=      5-min Rain = 0
KES1 190035Z 15008KT 26/12 A2955 RMK A01 T02560121  RH  043%=      5-min Rain = 0
KES1 190036Z 15008KT 26/12 A2955 RMK A01 T02560121  RH  043%=      5-min Rain = 0
KES1 190037Z 15008KT 26/12 A2955 RMK A01 T02550121  RH  043%=      5-min Rain = 0
KES1 190038Z 15008KT 25/12 A2955 RMK A01 T02540121  RH  043%=      5-min Rain = 0
KES1 190039Z 15009KT 25/12 A2955 RMK A01 T02540122  RH  044%=      5-min Rain = 0
KES1 190040Z 15009KT 25/12 A2955 RMK A01 T02540122  RH  044%=      5-min Rain = 0
KES1 190041Z 15009KT 25/12 A2955 RMK A01 T02530122  RH  044%=      5-min Rain = 0
KES1 190042Z 15009KT 25/12 A2955 RMK A01 T02530122  RH  044%=      5-min Rain = 0
KES1 190043Z 15010KT 25/12 A2955 RMK A01 T02530122  RH  044%=      5-min Rain = 0
KES1 190044Z 15009KT 25/12 A2955 RMK A01 T02530122  RH  044%=      5-min Rain = 0
KES1 190045Z 15009KT 25/12 A2955 RMK A01 T02540122  RH  044%=      5-min Rain = 0
KES1 190046Z 15010KT 25/12 A2955 RMK A01 T02540122  RH  044%=      5-min Rain = 0
KES1 190047Z 15010KT 26/12 A2955 RMK A01 T02550122  RH  044%=      5-min Rain = 0
KES1 190048Z 15010KT 26/12 A2955 RMK A01 T02550122  RH  044%=      5-min Rain = 0
KES1 190049Z 15010KT 25/12 A2955 RMK A01 T02540122  RH  044%=      5-min Rain = 0
KES1 190050Z 15012KT 26/12 A2955 RMK A01 T02550122  RH  044%=      5-min Rain = 0
KES1 190051Z 15011KT 26/12 A2955 RMK A01 T02560122  RH  043%=      5-min Rain = 0
KES1 190052Z 15011KT 26/12 A2955 RMK A01 T02560122  RH  043%=      5-min Rain = 0
KES1 190053Z 15011KT 26/12 A2955 RMK A01 T02560122  RH  043%=      5-min Rain = 0
KES1 190054Z 15011KT 26/12 A2955 RMK A01 T02560122  RH  043%=      5-min Rain = 0
KES1 190055Z 15010KT 26/12 A2955 RMK A01 T02570122  RH  043%=      5-min Rain = 0
KES1 190056Z 16011KT 26/12 A2955 RMK A01 T02570122  RH  043%=      5-min Rain = 0
KES1 190057Z 15009KT 26/12 A2955 RMK A01 T02570122  RH  043%=      5-min Rain = 0
KES1 190058Z 15010KT 26/12 A2955 RMK A01 T02570122  RH  043%=      5-min Rain = 0
KES1 190059Z 16012KT 26/12 A2955 RMK A01 T02560122  RH  043%=      5-min Rain = 0
KES1 190100Z 15012KT 26/12 A2955 RMK A01 T02560123  RH  043%=      5-min Rain = 0
KES1 190101Z 16009KT 26/12 A2955 RMK A01 T02560122  RH  043%=      5-min Rain = 0
KES1 190102Z 16011KT 26/12 A2955 RMK A01 T02560122  RH  043%=      5-min Rain = 0
KES1 190103Z 16010KT 26/12 A2955 RMK A01 T02570123  RH  043%=      5-min Rain = 0
KES1 190104Z 15010KT 26/12 A2955 RMK A01 T02570123  RH  043%=      5-min Rain = 0
KES1 190105Z 15011KT 26/12 A2955 RMK A01 T02560123  RH  043%=      5-min Rain = 0
KES1 190106Z 16010KT 26/12 A2955 RMK A01 T02560123  RH  043%=      5-min Rain = 0
KES1 190107Z 16010KT 26/12 A2955 RMK A01 T02560123  RH  043%=      5-min Rain = 0
KES1 190108Z 16009KT 26/12 A2955 RMK A01 T02560123  RH  043%=      5-min Rain = 0
KES1 190109Z 15009KT 26/12 A2955 RMK A01 T02560123  RH  043%=      5-min Rain = 0
KES1 190110Z 16011G16KT 26/12 A2955 RMK A01 T02560123  RH  043%=      5-min Rain = 0
KES1 190111Z 16012KT 26/12 A2955 RMK A01 T02560123  RH  043%=      5-min Rain = 0
KES1 190112Z 16012KT 26/12 A2956 RMK A01 T02570123  RH  043%=      5-min Rain = 0
KES1 190113Z 16011KT 26/12 A2956 RMK A01 T02580123  RH  043%=      5-min Rain = 0
KES1 190114Z 16010KT 26/12 A2956 RMK A01 T02580123  RH  043%=      5-min Rain = 0
KES1 190115Z 16012KT 26/12 A2956 RMK A01 T02580123  RH  043%=      5-min Rain = 0
KES1 190116Z 17011KT 26/12 A2956 RMK A01 T02580123  RH  043%=      5-min Rain = 0
KES1 190117Z 16009KT 26/12 A2956 RMK A01 T02590123  RH  043%=      5-min Rain = 0
KES1 190118Z 16010KT 26/12 A2956 RMK A01 T02590123  RH  043%=      5-min Rain = 0
KES1 190119Z 17010KT 26/12 A2956 RMK A01 T02590123  RH  043%=      5-min Rain = 0
KES1 190120Z 17008KT 26/12 A2956 RMK A01 T02590123  RH  043%=      5-min Rain = 0
KES1 190121Z 17008KT 26/12 A2956 RMK A01 T02590123  RH  043%=      5-min Rain = 0
KES1 190122Z 18008KT 26/12 A2956 RMK A01 T02580123  RH  043%=      5-min Rain = 0
KES1 190123Z 20006KT 26/12 A2956 RMK A01 T02570123  RH  043%=      5-min Rain = 0
KES1 190124Z 24008KT 26/12 A2957 RMK A01 T02570123  RH  043%=      5-min Rain = 0
KES1 190125Z 28012KT 26/12 A2958 RMK A01 T02570123  RH  043%=      5-min Rain = 0
KES1 190126Z 28012KT 26/12 A2958 RMK A01 T02550123  RH  044%=      5-min Rain = 0
KES1 190127Z 29010KT 25/12 A2958 RMK A01 T02520124  RH  045%=      5-min Rain = 0
KES1 190128Z 29008KT 25/13 A2958 RMK A01 T02500125  RH  046%=      5-min Rain = 0
KES1 190129Z 29007KT 25/13 A2958 RMK A01 T02490125  RH  046%=      5-min Rain = 0
KES1 190130Z 30008KT 25/13 A2958 RMK A01 T02480127  RH  047%=      5-min Rain = 0
KES1 190131Z 30010KT 25/13 A2958 RMK A01 T02470129  RH  048%=      5-min Rain = 0
KES1 190132Z 30011KT 25/13 A2958 RMK A01 T02470130  RH  048%=      5-min Rain = 0
KES1 190133Z 28011G16KT 25/13 A2958 RMK A01 T02460131  RH  049%=      5-min Rain = 0
KES1 190134Z 27012KT 25/13 A2958 RMK A01 T02460133  RH  049%=      5-min Rain = 0
KES1 190135Z 26013KT 25/13 A2958 RMK A01 T02480132  RH  048%=      5-min Rain = 0
KES1 190136Z 27013G19KT 25/13 A2959 RMK A01 T02500130  RH  047%=      5-min Rain = 0
KES1 190137Z 30008KT 26/12 A2959 RMK A01 T02570124  RH  044%=      5-min Rain = 0
KES1 190138Z 27011G16KT 26/13 A2958 RMK A01 T02620128  RH  043%=      5-min Rain = 0
KES1 190139Z 24008G14KT 26/12 A2959 RMK A01 T02630124  RH  042%=      5-min Rain = 0
KES1 190140Z 21005KT 27/12 A2959 RMK A01 T02670123  RH  041%=      5-min Rain = 0
KES1 190141Z 16002KT 27/12 A2959 RMK A01 T02680124  RH  041%=      5-min Rain = 0
KES1 190142Z 15001KT 27/12 A2959 RMK A01 T02680124  RH  041%=      5-min Rain = 0
KES1 190143Z 17001KT 27/13 A2959 RMK A01 T02680125  RH  041%=      5-min Rain = 0
KES1 190144Z 22001KT 27/13 A2959 RMK A01 T02670126  RH  042%=      5-min Rain = 0
KES1 190145Z 31006G11KT 27/13 A2959 RMK A01 T02660126  RH  042%=      5-min Rain = 0
KES1 190146Z 31007G13KT 26/13 A2959 RMK A01 T02640128  RH  043%=      5-min Rain = 0
KES1 190147Z 29006KT 26/13 A2959 RMK A01 T02640126  RH  043%=      5-min Rain = 0
KES1 190148Z 30006KT 26/13 A2959 RMK A01 T02630132  RH  044%=      5-min Rain = 0
KES1 190149Z 18004KT 26/13 A2959 RMK A01 T02600132  RH  045%=      5-min Rain = 0
KES1 190150Z 19003KT 26/13 A2959 RMK A01 T02580131  RH  045%=      5-min Rain = 0
KES1 190151Z 20003KT 26/13 A2959 RMK A01 T02570131  RH  046%=      5-min Rain = 0
KES1 190152Z 19006KT 26/13 A2959 RMK A01 T02560133  RH  046%=      5-min Rain = 0
KES1 190153Z 18003G9KT 25/13 A2959 RMK A01 T02540131  RH  046%=      5-min Rain = 0
KES1 190154Z 24005KT 25/13 A2959 RMK A01 T02540130  RH  046%=      5-min Rain = 0
KES1 190155Z 24005KT 25/13 A2959 RMK A01 T02540132  RH  047%=      5-min Rain = 0
KES1 190156Z 25003KT 25/13 A2959 RMK A01 T02540132  RH  047%=      5-min Rain = 0
KES1 190157Z 28005KT 25/13 A2959 RMK A01 T02530132  RH  047%=      5-min Rain = 0
KES1 190158Z 18004KT 25/13 A2959 RMK A01 T02530129  RH  046%=      5-min Rain = 0
KES1 190159Z 21006KT 26/13 A2959 RMK A01 T02550126  RH  045%=      5-min Rain = 0
KES1 190200Z 20006KT 26/12 A2959 RMK A01 T02570124  RH  044%=      5-min Rain = 0
KES1 190201Z 20005KT 26/12 A2959 RMK A01 T02590124  RH  043%=      5-min Rain = 0
KES1 190202Z 21006KT 26/12 A2959 RMK A01 T02600124  RH  043%=      5-min Rain = 0
KES1 190203Z 18005KT 26/12 A2959 RMK A01 T02610123  RH  042%=      5-min Rain = 0
KES1 190204Z 17005KT 26/12 A2959 RMK A01 T02610124  RH  043%=      5-min Rain = 0
KES1 190205Z 19005KT 26/13 A2959 RMK A01 T02600126  RH  043%=      5-min Rain = 0
KES1 190206Z 18004KT 26/12 A2959 RMK A01 T02590124  RH  043%=      5-min Rain = 0
KES1 190207Z 17004KT 26/12 A2959 RMK A01 T02590124  RH  043%=      5-min Rain = 0
KES1 190208Z 16004KT 26/12 A2959 RMK A01 T02580124  RH  043%=      5-min Rain = 0
KES1 190209Z 18004KT 26/12 A2959 RMK A01 T02580124  RH  043%=      5-min Rain = 0
KES1 190210Z 18004KT 26/12 A2959 RMK A01 T02570123  RH  043%=      5-min Rain = 0
KES1 190211Z 20004KT 26/12 A2959 RMK A01 T02570123  RH  043%=      5-min Rain = 0
KES1 190212Z 19005KT 26/12 A2959 RMK A01 T02570123  RH  043%=      5-min Rain = 0
KES1 190213Z 18006KT 26/12 A2959 RMK A01 T02570122  RH  043%=      5-min Rain = 0
KES1 190214Z 18005KT 26/12 A2959 RMK A01 T02570121  RH  043%=      5-min Rain = 0
KES1 190215Z 17005KT 26/12 A2959 RMK A01 T02570121  RH  043%=      5-min Rain = 0
KES1 190216Z 18007KT 26/12 A2959 RMK A01 T02570121  RH  043%=      5-min Rain = 0
KES1 190217Z 17007KT 26/12 A2959 RMK A01 T02570120  RH  042%=      5-min Rain = 0
KES1 190218Z 16006KT 26/12 A2959 RMK A01 T02570120  RH  043%=      5-min Rain = 0
KES1 190219Z 15007KT 26/12 A2959 RMK A01 T02560120  RH  043%=      5-min Rain = 0
KES1 190220Z 15007KT 26/12 A2959 RMK A01 T02560120  RH  043%=      5-min Rain = 0
KES1 190221Z 17007KT 26/12 A2959 RMK A01 T02550120  RH  043%=      5-min Rain = 0
KES1 190222Z 18007KT 26/12 A2959 RMK A01 T02550120  RH  043%=      5-min Rain = 0
KES1 190223Z 17006KT 26/12 A2959 RMK A01 T02550120  RH  043%=      5-min Rain = 0
KES1 190224Z 16006KT 26/12 A2959 RMK A01 T02550120  RH  043%=      5-min Rain = 0
KES1 190225Z 15006KT 25/12 A2959 RMK A01 T02540120  RH  043%=      5-min Rain = 0
KES1 190226Z 15006KT 25/12 A2959 RMK A01 T02530120  RH  043%=      5-min Rain = 0
KES1 190227Z 15006KT 25/12 A2959 RMK A01 T02520120  RH  044%=      5-min Rain = 0
KES1 190228Z 15006KT 25/12 A2959 RMK A01 T02510120  RH  044%=      5-min Rain = 0
KES1 190229Z 15006KT 25/12 A2959 RMK A01 T02500120  RH  044%=      5-min Rain = 0
KES1 190230Z 15007KT 25/12 A2959 RMK A01 T02500120  RH  044%=      5-min Rain = 0
KES1 190231Z 16006KT 25/12 A2959 RMK A01 T02500120  RH  044%=      5-min Rain = 0
KES1 190232Z 16006KT 25/12 A2959 RMK A01 T02500121  RH  045%=      5-min Rain = 0
KES1 190233Z 16005KT 25/12 A296 RMK A01 T02490121  RH  045%=      5-min Rain = 0
KES1 190234Z 15006KT 25/12 A296 RMK A01 T02490120  RH  045%=      5-min Rain = 0
KES1 190235Z 14008KT 25/12 A296 RMK A01 T02490121  RH  045%=      5-min Rain = 0
KES1 190236Z 15006KT 25/12 A296 RMK A01 T02500121  RH  044%=      5-min Rain = 0
KES1 190237Z 17007KT 25/12 A2961 RMK A01 T02500121  RH  044%=      5-min Rain = 0
KES1 190238Z 18007KT 25/12 A2961 RMK A01 T02500121  RH  045%=      5-min Rain = 0
KES1 190239Z 21007KT 25/12 A2962 RMK A01 T02500121  RH  045%=      5-min Rain = 0
KES1 190240Z 22007KT 25/12 A2963 RMK A01 T02500124  RH  045%=      5-min Rain = 0
KES1 190241Z 23007KT 25/13 A2964 RMK A01 T02490133  RH  049%=      5-min Rain = 0
KES1 190242Z 22007KT 24/14 A2964 RMK A01 T02440141  RH  053%=      5-min Rain = 0.02
KES1 190243Z 21007KT 24/14 A2964 RMK A01 T02360143  RH  056%=      5-min Rain = 0.01
KES1 190244Z 18007KT 23/15 A2964 RMK A01 T02280148  RH  061%=      5-min Rain = 0.01
KES1 190245Z 17007KT 22/15 A2964 RMK A01 T02200151  RH  065%=      5-min Rain = 0
KES1 190246Z 18008KT 22/15 A2964 RMK A01 T02150148  RH  066%=      5-min Rain = 0.01
KES1 190247Z 19007KT 22/14 A2964 RMK A01 T02160137  RH  061%=      5-min Rain = 0
KES1 190248Z 20009KT 22/15 A2964 RMK A01 T02180148  RH  065%=      5-min Rain = 0
KES1 190249Z 22010G16KT 22/15 A2964 RMK A01 T02160146  RH  065%=      5-min Rain = 0
KES1 190250Z 23012KT 22/14 A2964 RMK A01 T02180142  RH  062%=      5-min Rain = 0
KES1 190251Z 21007KT 22/15 A2964 RMK A01 T02210145  RH  062%=      5-min Rain = 0
KES1 190252Z 23006KT 22/15 A2964 RMK A01 T02210150  RH  064%=      5-min Rain = 0
KES1 190253Z 24005KT 22/15 A2964 RMK A01 T02180148  RH  064%=      5-min Rain = 0
KES1 190254Z 23006KT 22/15 A2964 RMK A01 T02170151  RH  066%=      5-min Rain = 0
KES1 190255Z 23007KT 22/15 A2964 RMK A01 T02160150  RH  066%=      5-min Rain = 0
KES1 190256Z 25009G14KT 22/15 A2964 RMK A01 T02150145  RH  064%=      5-min Rain = 0
KES1 190257Z 25009KT 22/14 A2964 RMK A01 T02150143  RH  063%=      5-min Rain = 0
KES1 190258Z 26010KT 21/14 A2964 RMK A01 T02140143  RH  064%=      5-min Rain = 0
KES1 190259Z 26011KT 21/14 A2964 RMK A01 T02130141  RH  064%=      5-min Rain = 0
KES1 190300Z 27011KT 21/14 A2964 RMK A01 T02110139  RH  063%=      5-min Rain = 0
KES1 190301Z 27013KT 21/14 A2964 RMK A01 T02110138  RH  063%=      5-min Rain = 0
KES1 190302Z 27016G25KT 21/13 A2963 RMK A01 T02130134  RH  061%=      5-min Rain = 0
KES1 190303Z 27019G25KT 22/13 A2963 RMK A01 T02150131  RH  059%=      5-min Rain = 0
KES1 190304Z 27016KT 22/13 A2963 RMK A01 T02160130  RH  058%=      5-min Rain = 0
KES1 190305Z 27013KT 22/13 A2963 RMK A01 T02170132  RH  059%=      5-min Rain = 0
KES1 190306Z 28016G22KT 21/13 A2962 RMK A01 T02140132  RH  059%=      5-min Rain = 0
KES1 190307Z 29019G28KT 21/13 A2962 RMK A01 T02130132  RH  060%=      5-min Rain = 0
KES1 190308Z 29021G28KT 21/13 A2962 RMK A01 T02100133  RH  061%=      5-min Rain = 0.01
KES1 190309Z 29020KT 21/13 A2961 RMK A01 T02080129  RH  061%=      5-min Rain = 0
KES1 190310Z 29018G23KT 21/13 A2962 RMK A01 T02070130  RH  061%=      5-min Rain = 0
KES1 190311Z 29019KT 21/13 A2962 RMK A01 T02060131  RH  062%=      5-min Rain = 0
KES1 190312Z 29018G23KT 21/13 A2962 RMK A01 T02060129  RH  061%=      5-min Rain = 0
KES1 190313Z 29016KT 21/13 A2962 RMK A01 T02060129  RH  062%=      5-min Rain = 0
KES1 190314Z 29015KT 21/13 A2962 RMK A01 T02060130  RH  062%=      5-min Rain = 0
KES1 190315Z 29014KT 21/13 A2962 RMK A01 T02050130  RH  062%=      5-min Rain = 0
KES1 190316Z 29013KT 21/13 A2962 RMK A01 T02050130  RH  062%=      5-min Rain = 0
KES1 190317Z 29012KT 21/13 A2962 RMK A01 T02050130  RH  062%=      5-min Rain = 0
KES1 190318Z 29012KT 21/13 A2962 RMK A01 T02050129  RH  062%=      5-min Rain = 0
KES1 190319Z 29012KT 21/13 A2962 RMK A01 T02050128  RH  061%=      5-min Rain = 0
KES1 190320Z 29012KT 21/13 A2962 RMK A01 T02050128  RH  061%=      5-min Rain = 0
KES1 190321Z 29015KT 21/12 A2962 RMK A01 T02050124  RH  059%=      5-min Rain = 0
KES1 190322Z 29010KT 21/12 A2962 RMK A01 T02080123  RH  058%=      5-min Rain = 0
KES1 190323Z 29012KT 21/13 A2962 RMK A01 T02090125  RH  059%=      5-min Rain = 0
KES1 190324Z 30014KT 21/13 A2962 RMK A01 T02090126  RH  059%=      5-min Rain = 0
KES1 190325Z 29013KT 21/12 A2962 RMK A01 T02080124  RH  059%=      5-min Rain = 0
KES1 190326Z 29013KT 21/12 A2962 RMK A01 T02090123  RH  058%=      5-min Rain = 0
KES1 190327Z 29012KT 21/12 A2962 RMK A01 T02100124  RH  058%=      5-min Rain = 0
KES1 190328Z 29011KT 21/13 A2962 RMK A01 T02100125  RH  058%=      5-min Rain = 0
KES1 190329Z 29012KT 21/12 A2962 RMK A01 T02090123  RH  058%=      5-min Rain = 0
KES1 190330Z 29012KT 21/12 A2962 RMK A01 T02100123  RH  057%=      5-min Rain = 0
KES1 190331Z 29011KT 21/12 A2962 RMK A01 T02110120  RH  056%=      5-min Rain = 0
KES1 190332Z 29010KT 21/12 A2962 RMK A01 T02130120  RH  055%=      5-min Rain = 0
KES1 190333Z 29010KT 21/12 A2963 RMK A01 T02130120  RH  055%=      5-min Rain = 0
KES1 190334Z 29009KT 21/12 A2963 RMK A01 T02140121  RH  055%=      5-min Rain = 0
KES1 190335Z 29010KT 21/12 A2963 RMK A01 T02140119  RH  055%=      5-min Rain = 0
KES1 190336Z 29010KT 21/12 A2963 RMK A01 T02140120  RH  055%=      5-min Rain = 0
KES1 190337Z 30009KT 21/12 A2963 RMK A01 T02130122  RH  056%=      5-min Rain = 0
KES1 190338Z 30009KT 21/12 A2963 RMK A01 T02120123  RH  057%=      5-min Rain = 0
KES1 190339Z 31008KT 21/12 A2963 RMK A01 T02110122  RH  057%=      5-min Rain = 0
KES1 190340Z 31008KT 21/12 A2962 RMK A01 T02100123  RH  057%=      5-min Rain = 0
KES1 190341Z 31008KT 21/12 A2962 RMK A01 T02100122  RH  057%=      5-min Rain = 0
KES1 190342Z 30008KT 21/12 A2963 RMK A01 T02100123  RH  058%=      5-min Rain = 0
KES1 190343Z 29008KT 21/12 A2963 RMK A01 T02090124  RH  058%=      5-min Rain = 0
KES1 190344Z 28006KT 21/12 A2963 RMK A01 T02080122  RH  058%=      5-min Rain = 0
KES1 190345Z 28006KT 21/12 A2963 RMK A01 T02080122  RH  058%=      5-min Rain = 0
KES1 190346Z 27007KT 21/12 A2964 RMK A01 T02070122  RH  058%=      5-min Rain = 0
KES1 190347Z 26007KT 21/12 A2964 RMK A01 T02070122  RH  058%=      5-min Rain = 0
KES1 190348Z 25006KT 21/12 A2964 RMK A01 T02070122  RH  058%=      5-min Rain = 0
KES1 190349Z 24005KT 21/12 A2964 RMK A01 T02060123  RH  059%=      5-min Rain = 0
KES1 190350Z 24004KT 21/12 A2964 RMK A01 T02050123  RH  059%=      5-min Rain = 0
KES1 190351Z 24003KT 21/12 A2964 RMK A01 T02050123  RH  059%=      5-min Rain = 0
KES1 190352Z 25003KT 20/12 A2964 RMK A01 T02040121  RH  059%=      5-min Rain = 0
KES1 190353Z 26003KT 20/12 A2964 RMK A01 T02040122  RH  059%=      5-min Rain = 0
KES1 190354Z 27003KT 20/12 A2964 RMK A01 T02040120  RH  059%=      5-min Rain = 0
KES1 190355Z 29003KT 20/12 A2964 RMK A01 T02040117  RH  057%=      5-min Rain = 0
KES1 190356Z 29004KT 21/12 A2964 RMK A01 T02050118  RH  057%=      5-min Rain = 0
KES1 190357Z 31003KT 21/12 A2964 RMK A01 T02060117  RH  057%=      5-min Rain = 0
KES1 190358Z 31003KT 21/12 A2964 RMK A01 T02070117  RH  056%=      5-min Rain = 0
KES1 190359Z 31002KT 21/12 A2964 RMK A01 T02070117  RH  056%=      5-min Rain = 0
KES1 190400Z 34001KT 21/12 A2964 RMK A01 T02080117  RH  056%=      5-min Rain = 0
KES1 190401Z 34001KT 21/12 A2964 RMK A01 T02080120  RH  057%=      5-min Rain = 0
KES1 190402Z 01000KT 21/12 A2964 RMK A01 T02060121  RH  058%=      5-min Rain = 0
KES1 190403Z 03000KT 20/12 A2964 RMK A01 T02040119  RH  058%=      5-min Rain = 0
KES1 190404Z 10001KT 20/12 A2964 RMK A01 T02040119  RH  058%=      5-min Rain = 0
KES1 190405Z 09002KT 20/12 A2964 RMK A01 T02040119  RH  058%=      5-min Rain = 0
KES1 190406Z 09002KT 20/12 A2964 RMK A01 T02040120  RH  059%=      5-min Rain = 0
KES1 190407Z 09003KT 20/12 A2964 RMK A01 T02030120  RH  059%=      5-min Rain = 0
KES1 190408Z 10004KT 20/12 A2964 RMK A01 T02010121  RH  060%=      5-min Rain = 0
KES1 190409Z 11005KT 20/12 A2964 RMK A01 T01990122  RH  061%=      5-min Rain = 0
KES1 190410Z 11005KT 20/12 A2964 RMK A01 T01970123  RH  062%=      5-min Rain = 0
KES1 190411Z 11005KT 20/12 A2964 RMK A01 T01950123  RH  063%=      5-min Rain = 0
KES1 190412Z 11006KT 19/12 A2964 RMK A01 T01930124  RH  064%=      5-min Rain = 0
KES1 190413Z 11007KT 19/13 A2964 RMK A01 T01910125  RH  065%=      5-min Rain = 0
KES1 190414Z 12008KT 19/13 A2964 RMK A01 T01900125  RH  066%=      5-min Rain = 0
KES1 190415Z 12008KT 19/13 A2964 RMK A01 T01890127  RH  067%=      5-min Rain = 0
KES1 190416Z 12008KT 19/13 A2964 RMK A01 T01880128  RH  068%=      5-min Rain = 0
KES1 190417Z 11007KT 19/13 A2964 RMK A01 T01880128  RH  068%=      5-min Rain = 0
KES1 190418Z 11007KT 19/13 A2964 RMK A01 T01880129  RH  068%=      5-min Rain = 0
KES1 190419Z 10007KT 19/13 A2964 RMK A01 T01880130  RH  069%=      5-min Rain = 0
KES1 190420Z 11007KT 19/13 A2964 RMK A01 T01880129  RH  068%=      5-min Rain = 0
KES1 190421Z 11007KT 19/13 A2964 RMK A01 T01890128  RH  068%=      5-min Rain = 0
KES1 190422Z 10007KT 19/13 A2964 RMK A01 T01900128  RH  067%=      5-min Rain = 0
KES1 190423Z 11007KT 19/13 A2964 RMK A01 T01920127  RH  066%=      5-min Rain = 0
KES1 190424Z 11006KT 19/13 A2964 RMK A01 T01930127  RH  066%=      5-min Rain = 0
KES1 190425Z 12005KT 19/13 A2964 RMK A01 T01930128  RH  066%=      5-min Rain = 0
KES1 190426Z 12005KT 19/13 A2964 RMK A01 T01940128  RH  066%=      5-min Rain = 0
KES1 190427Z 12005KT 19/13 A2964 RMK A01 T01940127  RH  065%=      5-min Rain = 0
KES1 190428Z 13007KT 19/13 A2964 RMK A01 T01940125  RH  064%=      5-min Rain = 0
KES1 190429Z 13006KT 20/13 A2964 RMK A01 T01960125  RH  064%=      5-min Rain = 0
KES1 190430Z 13005KT 20/13 A2964 RMK A01 T01970126  RH  064%=      5-min Rain = 0
KES1 190431Z 13006KT 20/13 A2963 RMK A01 T01970126  RH  064%=      5-min Rain = 0
KES1 190432Z 13006KT 20/13 A2963 RMK A01 T01970126  RH  064%=      5-min Rain = 0
KES1 190433Z 13006KT 20/13 A2963 RMK A01 T01970127  RH  064%=      5-min Rain = 0
KES1 190434Z 13006KT 20/13 A2963 RMK A01 T01960127  RH  064%=      5-min Rain = 0
KES1 190435Z 13007KT 20/13 A2964 RMK A01 T01950126  RH  064%=      5-min Rain = 0
KES1 190436Z 13007KT 20/12 A2964 RMK A01 T01950123  RH  063%=      5-min Rain = 0
KES1 190437Z 14006KT 20/12 A2964 RMK A01 T01970123  RH  062%=      5-min Rain = 0
KES1 190438Z 14005KT 20/12 A2964 RMK A01 T01980124  RH  062%=      5-min Rain = 0
KES1 190439Z 14004KT 20/12 A2964 RMK A01 T01980122  RH  062%=      5-min Rain = 0
KES1 190440Z 13004KT 20/12 A2964 RMK A01 T01990123  RH  062%=      5-min Rain = 0
KES1 190441Z 14004KT 20/12 A2964 RMK A01 T01990123  RH  061%=      5-min Rain = 0
KES1 190442Z 15005KT 20/12 A2964 RMK A01 T01990123  RH  061%=      5-min Rain = 0
KES1 190443Z 14004KT 20/12 A2964 RMK A01 T01990121  RH  061%=      5-min Rain = 0
KES1 190444Z 15005KT 20/12 A2964 RMK A01 T01990122  RH  061%=      5-min Rain = 0
KES1 190445Z 15004KT 20/12 A2964 RMK A01 T01990122  RH  061%=      5-min Rain = 0
KES1 190446Z 16005KT 20/12 A2963 RMK A01 T01980123  RH  062%=      5-min Rain = 0
KES1 190447Z 16005KT 20/12 A2963 RMK A01 T01970123  RH  062%=      5-min Rain = 0
KES1 190448Z 16005KT 20/12 A2963 RMK A01 T01950123  RH  063%=      5-min Rain = 0
KES1 190449Z 16006KT 19/12 A2963 RMK A01 T01940123  RH  063%=      5-min Rain = 0
KES1 190450Z 16007KT 19/12 A2963 RMK A01 T01930123  RH  064%=      5-min Rain = 0
KES1 190451Z 16007KT 19/13 A2963 RMK A01 T01910125  RH  065%=      5-min Rain = 0
KES1 190452Z 16007KT 19/13 A2963 RMK A01 T01890125  RH  066%=      5-min Rain = 0
KES1 190453Z 16007KT 19/12 A2963 RMK A01 T01870124  RH  066%=      5-min Rain = 0
KES1 190454Z 16007KT 19/12 A2963 RMK A01 T01870123  RH  066%=      5-min Rain = 0
KES1 190455Z 16007KT 19/12 A2963 RMK A01 T01870122  RH  066%=      5-min Rain = 0
KES1 190456Z 16007KT 19/12 A2963 RMK A01 T01880120  RH  065%=      5-min Rain = 0
KES1 190457Z 17006KT 19/12 A2963 RMK A01 T01890118  RH  063%=      5-min Rain = 0
KES1 190458Z 17006KT 19/12 A2963 RMK A01 T01910118  RH  062%=      5-min Rain = 0
KES1 190459Z 18006KT 19/12 A2963 RMK A01 T01940117  RH  061%=      5-min Rain = 0

Page generated in 0.1253 seconds.